<?xml version="1.0" encoding="UTF-8"?>
<gpx xmlns="http://www.topografix.com/GPX/1/1" xmlns:ns2="http://www.garmin.com/xmlschemas/GpxExtensions/v3" xmlns:ns3="http://www.garmin.com/xmlschemas/TrackPointExtension/v1" xmlns:xsi="http://www.w3.org/2001/XMLSchema-instance" xsi:schemaLocation="http://www.topografix.com/GPX/1/1 http://www.topografix.com/GPX/11.xsd" version="1.1" creator="Garmin Connect">
  <metadata>
    <name>VR - Road 13 Giro delle Cave di Botticino</name>
    <link href="connect.garmin.com">
      <text>Garmin Connect</text>
    </link>
    <time>2017-11-21T17:23:15Z</time>
  </metadata>
  <trk>
    <trkseg>
      <trkpt lat="45.51757883280516" lon="10.288252718746664">
        <ele>134.0</ele>
        <time>2017-11-21T17:23:15Z</time>
      </trkpt>
      <trkpt lat="45.51745184697211" lon="10.288803577423096">
        <ele>135.28587363223065</ele>
        <time>2017-11-21T17:23:15.651000Z</time>
      </trkpt>
      <trkpt lat="45.51743038929999" lon="10.288867950439453">
        <ele>135.32101524232874</ele>
        <time>2017-11-21T17:23:15.731000Z</time>
      </trkpt>
      <trkpt lat="45.51712998189032" lon="10.29017686843872">
        <ele>136.0</ele>
        <time>2017-11-21T17:23:17.278000Z</time>
      </trkpt>
      <trkpt lat="45.51695832051337" lon="10.290906429290771">
        <ele>136.12958663171042</ele>
        <time>2017-11-21T17:23:18.143000Z</time>
      </trkpt>
      <trkpt lat="45.516293132677674" lon="10.293760299682617">
        <ele>134.0</ele>
        <time>2017-11-21T17:23:21.522000Z</time>
      </trkpt>
      <trkpt lat="45.51612147130072" lon="10.29444694519043">
        <ele>134.0</ele>
        <time>2017-11-21T17:23:22.341000Z</time>
      </trkpt>
      <trkpt lat="45.51594980992377" lon="10.29517650604248">
        <ele>134.18648293781396</ele>
        <time>2017-11-21T17:23:23.206000Z</time>
      </trkpt>
      <trkpt lat="45.51581221705595" lon="10.295804913985638">
        <ele>135.91122490934785</ele>
        <time>2017-11-21T17:23:23.946000Z</time>
      </trkpt>
      <trkpt lat="45.51581251434982" lon="10.295803556218743">
        <ele>135.91207060584065</ele>
        <time>2017-11-21T17:23:23.946000Z</time>
      </trkpt>
      <trkpt lat="45.51581251434982" lon="10.295803640037775">
        <ele>135.91212043704277</ele>
        <time>2017-11-21T17:23:23.946000Z</time>
      </trkpt>
      <trkpt lat="45.51564931869507" lon="10.296549797058105">
        <ele>136.37682594960754</ele>
        <time>2017-11-21T17:23:24.824000Z</time>
      </trkpt>
      <trkpt lat="45.51552057266235" lon="10.29667854309082">
        <ele>135.84353968810336</ele>
        <time>2017-11-21T17:23:25.076000Z</time>
      </trkpt>
      <trkpt lat="45.51547774113715" lon="10.29670000076294">
        <ele>135.8820535585942</ele>
        <time>2017-11-21T17:23:25.149000Z</time>
      </trkpt>
      <trkpt lat="45.51543482579291" lon="10.296850204467773">
        <ele>135.978489548746</ele>
        <time>2017-11-21T17:23:25.331000Z</time>
      </trkpt>
      <trkpt lat="45.515477657318115" lon="10.29691457748413">
        <ele>136.0421071627812</ele>
        <time>2017-11-21T17:23:25.431000Z</time>
      </trkpt>
      <trkpt lat="45.515499114990234" lon="10.297214984893799">
        <ele>136.30444568621417</ele>
        <time>2017-11-21T17:23:25.770000Z</time>
      </trkpt>
      <trkpt lat="45.51496275700629" lon="10.299510955810547">
        <ele>139.7403963714953</ele>
        <time>2017-11-21T17:23:28.489000Z</time>
      </trkpt>
      <trkpt lat="45.514812553301454" lon="10.300133228302002">
        <ele>140.0</ele>
        <time>2017-11-21T17:23:29.228000Z</time>
      </trkpt>
      <trkpt lat="45.514512145891786" lon="10.30142068862915">
        <ele>139.93307092782263</ele>
        <time>2017-11-21T17:23:30.752000Z</time>
      </trkpt>
      <trkpt lat="45.51446923054755" lon="10.301549434661865">
        <ele>139.96106098119927</ele>
        <time>2017-11-21T17:23:30.912000Z</time>
      </trkpt>
      <trkpt lat="45.51431902684271" lon="10.302236080169678">
        <ele>141.10228190517174</ele>
        <time>2017-11-21T17:23:31.720000Z</time>
      </trkpt>
      <trkpt lat="45.5140829924494" lon="10.3031587600708">
        <ele>139.31688653305187</ele>
        <time>2017-11-21T17:23:32.823000Z</time>
      </trkpt>
      <trkpt lat="45.51397570408881" lon="10.303587913513184">
        <ele>139.05318261867785</ele>
        <time>2017-11-21T17:23:33.335000Z</time>
      </trkpt>
      <trkpt lat="45.51367521286011" lon="10.304896831512451">
        <ele>138.88061523816134</ele>
        <time>2017-11-21T17:23:34.882000Z</time>
      </trkpt>
      <trkpt lat="45.51367529667914" lon="10.304896831512451">
        <ele>138.88062919956903</ele>
        <time>2017-11-21T17:23:34.882000Z</time>
      </trkpt>
      <trkpt lat="45.513525092974305" lon="10.305519104003906">
        <ele>139.29078224283208</ele>
        <time>2017-11-21T17:23:35.621000Z</time>
      </trkpt>
      <trkpt lat="45.5134391784668" lon="10.305862426757812">
        <ele>139.8911794523061</ele>
        <time>2017-11-21T17:23:36.031000Z</time>
      </trkpt>
      <trkpt lat="45.5133868639272" lon="10.305993129269272">
        <ele>140.00013779109713</ele>
        <time>2017-11-21T17:23:36.200000Z</time>
      </trkpt>
      <trkpt lat="45.51338687539101" lon="10.305993100628257">
        <ele>140.00016166730802</ele>
        <time>2017-11-21T17:23:36.200000Z</time>
      </trkpt>
      <trkpt lat="45.51338695921004" lon="10.305992849171162">
        <ele>140.00036323497804</ele>
        <time>2017-11-21T17:23:36.200000Z</time>
      </trkpt>
      <trkpt lat="45.51335343159735" lon="10.306077003479004">
        <ele>140.0704377042869</ele>
        <time>2017-11-21T17:23:36.309000Z</time>
      </trkpt>
      <trkpt lat="45.513246059417725" lon="10.306248664855957">
        <ele>140.90366775773583</ele>
        <time>2017-11-21T17:23:36.567000Z</time>
      </trkpt>
      <trkpt lat="45.51316031254828" lon="10.306334495544434">
        <ele>141.01186284092358</ele>
        <time>2017-11-21T17:23:36.735000Z</time>
      </trkpt>
      <trkpt lat="45.51316031254828" lon="10.306570529937744">
        <ele>141.1827225746597</ele>
        <time>2017-11-21T17:23:37Z</time>
      </trkpt>
      <trkpt lat="45.51318168640137" lon="10.306613445281982">
        <ele>141.22083501360498</ele>
        <time>2017-11-21T17:23:37.059000Z</time>
      </trkpt>
      <trkpt lat="45.5131817702204" lon="10.306828022003174">
        <ele>141.37616200918495</ele>
        <time>2017-11-21T17:23:37.300000Z</time>
      </trkpt>
      <trkpt lat="45.51318168640137" lon="10.306956768035889">
        <ele>141.46935823229583</ele>
        <time>2017-11-21T17:23:37.445000Z</time>
      </trkpt>
      <trkpt lat="45.51313885487616" lon="10.307085514068604">
        <ele>141.48475366658508</ele>
        <time>2017-11-21T17:23:37.605000Z</time>
      </trkpt>
      <trkpt lat="45.513031566515565" lon="10.307557582855225">
        <ele>141.53836357241372</ele>
        <time>2017-11-21T17:23:38.163000Z</time>
      </trkpt>
      <trkpt lat="45.51208742894232" lon="10.311613082885742">
        <ele>142.0</ele>
        <time>2017-11-21T17:23:42.964000Z</time>
      </trkpt>
      <trkpt lat="45.51208734512329" lon="10.311613082885742">
        <ele>142.0</ele>
        <time>2017-11-21T17:23:42.964000Z</time>
      </trkpt>
      <trkpt lat="45.512023055925965" lon="10.311827659606934">
        <ele>142.07622214497835</ele>
        <time>2017-11-21T17:23:43.226000Z</time>
      </trkpt>
      <trkpt lat="45.51191576756537" lon="10.312364101409912">
        <ele>142.25843161057276</ele>
        <time>2017-11-21T17:23:43.853000Z</time>
      </trkpt>
      <trkpt lat="45.51167964935303" lon="10.31339406967163">
        <ele>143.71810643683565</ele>
        <time>2017-11-21T17:23:45.070000Z</time>
      </trkpt>
      <trkpt lat="45.5111647490412" lon="10.315475463867188">
        <ele>146.0</ele>
        <time>2017-11-21T17:23:47.550000Z</time>
      </trkpt>
      <trkpt lat="45.51116466522217" lon="10.315475463867188">
        <ele>146.0</ele>
        <time>2017-11-21T17:23:47.550000Z</time>
      </trkpt>
      <trkpt lat="45.51095017232001" lon="10.316376686096191">
        <ele>146.66666666666666</ele>
        <time>2017-11-21T17:23:48.619000Z</time>
      </trkpt>
      <trkpt lat="45.510714054107666" lon="10.317363739013672">
        <ele>146.0</ele>
        <time>2017-11-21T17:23:49.791000Z</time>
      </trkpt>
      <trkpt lat="45.51054239273071" lon="10.317707061767578">
        <ele>145.59818685565224</ele>
        <time>2017-11-21T17:23:50.265000Z</time>
      </trkpt>
      <trkpt lat="45.510499561205506" lon="10.317728519439697">
        <ele>145.58766900509968</ele>
        <time>2017-11-21T17:23:50.338000Z</time>
      </trkpt>
      <trkpt lat="45.51043518818915" lon="10.31792163848877">
        <ele>145.55294570110985</ele>
        <time>2017-11-21T17:23:50.578000Z</time>
      </trkpt>
      <trkpt lat="45.510478019714355" lon="10.318028926849365">
        <ele>145.53289684326546</ele>
        <time>2017-11-21T17:23:50.717000Z</time>
      </trkpt>
      <trkpt lat="45.51043510437012" lon="10.318522453308105">
        <ele>145.11881504819064</ele>
        <time>2017-11-21T17:23:51.276000Z</time>
      </trkpt>
      <trkpt lat="45.5101562384516" lon="10.319702625274658">
        <ele>145.58325617169552</ele>
        <time>2017-11-21T17:23:52.675000Z</time>
      </trkpt>
      <trkpt lat="45.50981283187866" lon="10.32116174697876">
        <ele>144.0</ele>
        <time>2017-11-21T17:23:54.404000Z</time>
      </trkpt>
      <trkpt lat="45.50966262817383" lon="10.321526527404785">
        <ele>144.18001551720684</ele>
        <time>2017-11-21T17:23:54.879000Z</time>
      </trkpt>
      <trkpt lat="45.50959825515747" lon="10.3216552734375">
        <ele>144.24730776664228</ele>
        <time>2017-11-21T17:23:55.057000Z</time>
      </trkpt>
      <trkpt lat="45.50961971282959" lon="10.321762561798096">
        <ele>144.62811272746686</ele>
        <time>2017-11-21T17:23:55.182000Z</time>
      </trkpt>
      <trkpt lat="45.50955533981323" lon="10.322234630584717">
        <ele>144.8327355693474</ele>
        <time>2017-11-21T17:23:55.722000Z</time>
      </trkpt>
      <trkpt lat="45.508267963305116" lon="10.327835083007812">
        <ele>147.0</ele>
        <time>2017-11-21T17:24:02.344000Z</time>
      </trkpt>
      <trkpt lat="45.50762423314154" lon="10.330517292022705">
        <ele>149.0</ele>
        <time>2017-11-21T17:24:05.529000Z</time>
      </trkpt>
      <trkpt lat="45.50762414932251" lon="10.330517292022705">
        <ele>149.0</ele>
        <time>2017-11-21T17:24:05.530000Z</time>
      </trkpt>
      <trkpt lat="45.50749548710883" lon="10.331075191497803">
        <ele>149.2056869598308</ele>
        <time>2017-11-21T17:24:06.190000Z</time>
      </trkpt>
      <trkpt lat="45.50734528340399" lon="10.331697463989258">
        <ele>150.76950873035153</ele>
        <time>2017-11-21T17:24:06.929000Z</time>
      </trkpt>
      <trkpt lat="45.50732374191284" lon="10.331783294677734">
        <ele>150.86731750971273</ele>
        <time>2017-11-21T17:24:07.031000Z</time>
      </trkpt>
      <trkpt lat="45.50719507969916" lon="10.332319736480713">
        <ele>151.47560177798434</ele>
        <time>2017-11-21T17:24:07.668000Z</time>
      </trkpt>
      <trkpt lat="45.50717362202704" lon="10.33238410949707">
        <ele>151.51588848925113</ele>
        <time>2017-11-21T17:24:07.748000Z</time>
      </trkpt>
      <trkpt lat="45.50717353820801" lon="10.332577228546143">
        <ele>152.29169861263264</ele>
        <time>2017-11-21T17:24:07.965000Z</time>
      </trkpt>
      <trkpt lat="45.50708770751953" lon="10.332856178283691">
        <ele>152.1413897159905</ele>
        <time>2017-11-21T17:24:08.307000Z</time>
      </trkpt>
      <trkpt lat="45.5068729275586" lon="10.333629688278844">
        <ele>151.39755737073253</ele>
        <time>2017-11-21T17:24:09.242000Z</time>
      </trkpt>
      <trkpt lat="45.50687321461737" lon="10.33362865447998">
        <ele>151.39700873615266</ele>
        <time>2017-11-21T17:24:09.243000Z</time>
      </trkpt>
      <trkpt lat="45.50687313079834" lon="10.33362865447998">
        <ele>151.39694972724956</ele>
        <time>2017-11-21T17:24:09.243000Z</time>
      </trkpt>
      <trkpt lat="45.50863265991211" lon="10.334937572479248">
        <ele>149.0</ele>
        <time>2017-11-21T17:24:12.424000Z</time>
      </trkpt>
      <trkpt lat="45.50919064320624" lon="10.336053371429443">
        <ele>149.2097535253024</ele>
        <time>2017-11-21T17:24:13.964000Z</time>
      </trkpt>
      <trkpt lat="45.50919055938721" lon="10.336053371429443">
        <ele>149.20977182743138</ele>
        <time>2017-11-21T17:24:13.964000Z</time>
      </trkpt>
      <trkpt lat="45.50953271897412" lon="10.33669652413692">
        <ele>149.74360241195532</ele>
        <time>2017-11-21T17:24:14.871000Z</time>
      </trkpt>
      <trkpt lat="45.50953262485564" lon="10.336696347221732">
        <ele>149.74363553692265</ele>
        <time>2017-11-21T17:24:14.872000Z</time>
      </trkpt>
      <trkpt lat="45.509532541036606" lon="10.336696095764637">
        <ele>149.74367706335443</ele>
        <time>2017-11-21T17:24:14.872000Z</time>
      </trkpt>
      <trkpt lat="45.509727001190186" lon="10.337061882019043">
        <ele>149.81214775907893</ele>
        <time>2017-11-21T17:24:15.388000Z</time>
      </trkpt>
      <trkpt lat="45.511958599090576" lon="10.341825485229492">
        <ele>151.0</ele>
        <time>2017-11-21T17:24:21.825000Z</time>
      </trkpt>
      <trkpt lat="45.512609255766684" lon="10.343222434069009">
        <ele>157.0</ele>
        <time>2017-11-21T17:24:23.709000Z</time>
      </trkpt>
      <trkpt lat="45.51260869950056" lon="10.343221239745617">
        <ele>157.00160288926662</ele>
        <time>2017-11-21T17:24:23.711000Z</time>
      </trkpt>
      <trkpt lat="45.51260861568153" lon="10.343221072107553">
        <ele>157.0018330690422</ele>
        <time>2017-11-21T17:24:23.711000Z</time>
      </trkpt>
      <trkpt lat="45.51341772079468" lon="10.344958305358887">
        <ele>164.0</ele>
        <time>2017-11-21T17:24:26.054000Z</time>
      </trkpt>
      <trkpt lat="45.51416873931885" lon="10.346825122833252">
        <ele>159.0</ele>
        <time>2017-11-21T17:24:28.472000Z</time>
      </trkpt>
      <trkpt lat="45.51442623138428" lon="10.347683429718018">
        <ele>155.11206372218632</ele>
        <time>2017-11-21T17:24:29.521000Z</time>
      </trkpt>
      <trkpt lat="45.514469146728516" lon="10.348005294799805">
        <ele>154.91744245774768</ele>
        <time>2017-11-21T17:24:29.889000Z</time>
      </trkpt>
      <trkpt lat="45.51447026078474" lon="10.34802662101699">
        <ele>154.90473932820998</ele>
        <time>2017-11-21T17:24:29.913000Z</time>
      </trkpt>
      <trkpt lat="45.51447032019496" lon="10.348027758300304">
        <ele>154.90406189643764</ele>
        <time>2017-11-21T17:24:29.914000Z</time>
      </trkpt>
      <trkpt lat="45.51447032019496" lon="10.34802750684321">
        <ele>154.90391252852248</ele>
        <time>2017-11-21T17:24:29.915000Z</time>
      </trkpt>
      <trkpt lat="45.514512062072754" lon="10.348820686340332">
        <ele>154.43142982508712</ele>
        <time>2017-11-21T17:24:30.809000Z</time>
      </trkpt>
      <trkpt lat="45.514512062072754" lon="10.35010814666748">
        <ele>153.0</ele>
        <time>2017-11-21T17:24:32.255000Z</time>
      </trkpt>
      <trkpt lat="45.514490604400635" lon="10.352082252502441">
        <ele>154.1874760172731</ele>
        <time>2017-11-21T17:24:34.473000Z</time>
      </trkpt>
      <trkpt lat="45.5144476890564" lon="10.352253913879395">
        <ele>154.23555397431554</ele>
        <time>2017-11-21T17:24:34.678000Z</time>
      </trkpt>
      <trkpt lat="45.51457651890814" lon="10.352575778961182">
        <ele>154.66666666666666</ele>
        <time>2017-11-21T17:24:35.094000Z</time>
      </trkpt>
      <trkpt lat="45.51446923054755" lon="10.355944633483887">
        <ele>154.0</ele>
        <time>2017-11-21T17:24:38.882000Z</time>
      </trkpt>
      <trkpt lat="45.5144476890564" lon="10.356330871582031">
        <ele>154.0811856882166</ele>
        <time>2017-11-21T17:24:39.317000Z</time>
      </trkpt>
      <trkpt lat="45.514533603563905" lon="10.35635232925415">
        <ele>154.06274134811594</ele>
        <time>2017-11-21T17:24:39.457000Z</time>
      </trkpt>
      <trkpt lat="45.51468372344971" lon="10.356245040893555">
        <ele>154.02723733515248</ele>
        <time>2017-11-21T17:24:39.726000Z</time>
      </trkpt>
      <trkpt lat="45.51470526494086" lon="10.356287956237793">
        <ele>154.01941484724284</ele>
        <time>2017-11-21T17:24:39.785000Z</time>
      </trkpt>
      <trkpt lat="45.514705181121826" lon="10.356802940368652">
        <ele>153.60977042362626</ele>
        <time>2017-11-21T17:24:40.364000Z</time>
      </trkpt>
      <trkpt lat="45.514769554138184" lon="10.357167720794678">
        <ele>153.89057331154459</ele>
        <time>2017-11-21T17:24:40.787000Z</time>
      </trkpt>
      <trkpt lat="45.514748096466064" lon="10.357253551483154">
        <ele>153.95859962901875</ele>
        <time>2017-11-21T17:24:40.889000Z</time>
      </trkpt>
      <trkpt lat="45.514769554138184" lon="10.358648300170898">
        <ele>156.0</ele>
        <time>2017-11-21T17:24:42.456000Z</time>
      </trkpt>
      <trkpt lat="45.51485538482666" lon="10.35886287689209">
        <ele>155.9074424923506</ele>
        <time>2017-11-21T17:24:42.734000Z</time>
      </trkpt>
      <trkpt lat="45.5146408919245" lon="10.358905792236328">
        <ele>155.79165184594748</ele>
        <time>2017-11-21T17:24:43.081000Z</time>
      </trkpt>
      <trkpt lat="45.51446923054755" lon="10.358905792236328">
        <ele>155.69988067205182</ele>
        <time>2017-11-21T17:24:43.356000Z</time>
      </trkpt>
      <trkpt lat="45.5144476890564" lon="10.358905792236328">
        <ele>155.6883644651714</ele>
        <time>2017-11-21T17:24:43.391000Z</time>
      </trkpt>
      <trkpt lat="45.51443519200661" lon="10.359700067703782">
        <ele>155.0574093426637</ele>
        <time>2017-11-21T17:24:44.283000Z</time>
      </trkpt>
      <trkpt lat="45.51443520002067" lon="10.359699558466673">
        <ele>155.05721852715604</ele>
        <time>2017-11-21T17:24:44.283000Z</time>
      </trkpt>
      <trkpt lat="45.51443520002067" lon="10.359699307009578">
        <ele>155.05712432778174</ele>
        <time>2017-11-21T17:24:44.283000Z</time>
      </trkpt>
      <trkpt lat="45.51440477371216" lon="10.361630916595459">
        <ele>154.0</ele>
        <time>2017-11-21T17:24:46.453000Z</time>
      </trkpt>
      <trkpt lat="45.51429748535156" lon="10.36285400390625">
        <ele>155.53391052017605</ele>
        <time>2017-11-21T17:24:47.838000Z</time>
      </trkpt>
      <trkpt lat="45.51440477371216" lon="10.36334753036499">
        <ele>154.9513274461422</ele>
        <time>2017-11-21T17:24:48.418000Z</time>
      </trkpt>
      <trkpt lat="45.51453351974487" lon="10.3635835647583">
        <ele>155.02924926298348</ele>
        <time>2017-11-21T17:24:48.754000Z</time>
      </trkpt>
      <trkpt lat="45.5182671546936" lon="10.36733865737915">
        <ele>157.0</ele>
        <time>2017-11-21T17:24:56.077000Z</time>
      </trkpt>
      <trkpt lat="45.51936149597168" lon="10.368947982788086">
        <ele>155.0</ele>
        <time>2017-11-21T17:24:58.596000Z</time>
      </trkpt>
      <trkpt lat="45.51992739924921" lon="10.369825371695915">
        <ele>157.0</ele>
        <time>2017-11-21T17:24:59.936000Z</time>
      </trkpt>
      <trkpt lat="45.519927525892854" lon="10.369825568050146">
        <ele>157.00007141971878</ele>
        <time>2017-11-21T17:24:59.936000Z</time>
      </trkpt>
      <trkpt lat="45.51992744207382" lon="10.369825400412083">
        <ele>157.0001265326647</ele>
        <time>2017-11-21T17:24:59.936000Z</time>
      </trkpt>
      <trkpt lat="45.5217004660517" lon="10.37257432937622">
        <ele>160.0</ele>
        <time>2017-11-21T17:25:04.133000Z</time>
      </trkpt>
      <trkpt lat="45.521700382232666" lon="10.37257432937622">
        <ele>160.000022500538</ele>
        <time>2017-11-21T17:25:04.133000Z</time>
      </trkpt>
      <trkpt lat="45.521957874298096" lon="10.372745990753174">
        <ele>160.07631269245596</ele>
        <time>2017-11-21T17:25:04.589000Z</time>
      </trkpt>
      <trkpt lat="45.52236557006836" lon="10.372660160064697">
        <ele>160.18693945343395</ele>
        <time>2017-11-21T17:25:05.250000Z</time>
      </trkpt>
      <trkpt lat="45.522751808166504" lon="10.372660160064697">
        <ele>160.80924087790422</ele>
        <time>2017-11-21T17:25:05.869000Z</time>
      </trkpt>
      <trkpt lat="45.52277326583862" lon="10.372703075408936">
        <ele>160.8368772007641</ele>
        <time>2017-11-21T17:25:05.928000Z</time>
      </trkpt>
      <trkpt lat="45.522751808166504" lon="10.372874736785889">
        <ele>160.9282796420175</ele>
        <time>2017-11-21T17:25:06.124000Z</time>
      </trkpt>
      <trkpt lat="45.52281626500189" lon="10.37407636642456">
        <ele>161.78750073779804</ele>
        <time>2017-11-21T17:25:07.478000Z</time>
      </trkpt>
      <trkpt lat="45.52273043431342" lon="10.374226570129395">
        <ele>161.8188029691901</ele>
        <time>2017-11-21T17:25:07.696000Z</time>
      </trkpt>
      <trkpt lat="45.522751891985536" lon="10.374312400817871">
        <ele>161.8335202756355</ele>
        <time>2017-11-21T17:25:07.798000Z</time>
      </trkpt>
      <trkpt lat="45.522751808166504" lon="10.374312400817871">
        <ele>161.8335395961157</ele>
        <time>2017-11-21T17:25:07.798000Z</time>
      </trkpt>
      <trkpt lat="45.52464008331299" lon="10.378711223602295">
        <ele>163.0</ele>
        <time>2017-11-21T17:25:13.592000Z</time>
      </trkpt>
      <trkpt lat="45.52568089258889" lon="10.380968435805023">
        <ele>164.0</ele>
        <time>2017-11-21T17:25:16.627000Z</time>
      </trkpt>
      <trkpt lat="45.52567994222045" lon="10.380966374650598">
        <ele>164.0</ele>
        <time>2017-11-21T17:25:16.630000Z</time>
      </trkpt>
      <trkpt lat="45.525679774582386" lon="10.38096603937447">
        <ele>164.00001979752724</ele>
        <time>2017-11-21T17:25:16.630000Z</time>
      </trkpt>
      <trkpt lat="45.52642107009888" lon="10.38257360458374">
        <ele>165.42585200691016</ele>
        <time>2017-11-21T17:25:18.792000Z</time>
      </trkpt>
      <trkpt lat="45.526485526934266" lon="10.382938385009766">
        <ele>165.44393338345097</ele>
        <time>2017-11-21T17:25:19.215000Z</time>
      </trkpt>
      <trkpt lat="45.526485443115234" lon="10.382938385009766">
        <ele>165.44393052807598</ele>
        <time>2017-11-21T17:25:19.215000Z</time>
      </trkpt>
      <trkpt lat="45.52781581878662" lon="10.387165546417236">
        <ele>165.0</ele>
        <time>2017-11-21T17:25:24.420000Z</time>
      </trkpt>
      <trkpt lat="45.52809476852417" lon="10.387766361236572">
        <ele>166.0</ele>
        <time>2017-11-21T17:25:25.230000Z</time>
      </trkpt>
      <trkpt lat="45.52841663360596" lon="10.389096736907959">
        <ele>167.33333333333334</ele>
        <time>2017-11-21T17:25:26.811000Z</time>
      </trkpt>
      <trkpt lat="45.52906036376953" lon="10.390727519989014">
        <ele>166.0</ele>
        <time>2017-11-21T17:25:28.913000Z</time>
      </trkpt>
      <trkpt lat="45.53090572357178" lon="10.39607048034668">
        <ele>172.0</ele>
        <time>2017-11-21T17:25:35.603000Z</time>
      </trkpt>
      <trkpt lat="45.53090572357178" lon="10.396199226379395">
        <ele>172.0</ele>
        <time>2017-11-21T17:25:35.748000Z</time>
      </trkpt>
      <trkpt lat="45.53103446960449" lon="10.396456718444824">
        <ele>172.0</ele>
        <time>2017-11-21T17:25:36.103000Z</time>
      </trkpt>
      <trkpt lat="45.53154945373535" lon="10.397958755493164">
        <ele>172.0</ele>
        <time>2017-11-21T17:25:37.981000Z</time>
      </trkpt>
      <trkpt lat="45.53161391057074" lon="10.397915840148926">
        <ele>171.98947707389257</ele>
        <time>2017-11-21T17:25:38.095000Z</time>
      </trkpt>
      <trkpt lat="45.5316782835871" lon="10.397894382476807">
        <ele>173.07131898979097</ele>
        <time>2017-11-21T17:25:38.201000Z</time>
      </trkpt>
      <trkpt lat="45.531721115112305" lon="10.397872924804688">
        <ele>173.12751792231907</ele>
        <time>2017-11-21T17:25:38.274000Z</time>
      </trkpt>
      <trkpt lat="45.531785571947694" lon="10.39780855178833">
        <ele>173.22491021844527</ele>
        <time>2017-11-21T17:25:38.400000Z</time>
      </trkpt>
      <trkpt lat="45.53187140263617" lon="10.397765636444092">
        <ele>173.3375039088346</ele>
        <time>2017-11-21T17:25:38.546000Z</time>
      </trkpt>
      <trkpt lat="45.53227129797707" lon="10.397502325376351">
        <ele>173.88272958447376</ele>
        <time>2017-11-21T17:25:39.252000Z</time>
      </trkpt>
      <trkpt lat="45.53227264434099" lon="10.397501438856125">
        <ele>173.88115647672635</ele>
        <time>2017-11-21T17:25:39.254000Z</time>
      </trkpt>
      <trkpt lat="45.53227256052196" lon="10.397501438856125">
        <ele>173.88106754591027</ele>
        <time>2017-11-21T17:25:39.254000Z</time>
      </trkpt>
      <trkpt lat="45.53275108337402" lon="10.397186279296875">
        <ele>172.6552669218697</ele>
        <time>2017-11-21T17:25:40.099000Z</time>
      </trkpt>
      <trkpt lat="45.53356647491455" lon="10.3965425491333">
        <ele>171.0</ele>
        <time>2017-11-21T17:25:41.593000Z</time>
      </trkpt>
      <trkpt lat="45.53365238942206" lon="10.3965425491333">
        <ele>171.05521225795965</ele>
        <time>2017-11-21T17:25:41.731000Z</time>
      </trkpt>
      <trkpt lat="45.53406000137329" lon="10.395963191986084">
        <ele>171.42485500235247</ele>
        <time>2017-11-21T17:25:42.653000Z</time>
      </trkpt>
      <trkpt lat="45.534489154815674" lon="10.395641326904297">
        <ele>172.06972399966557</ele>
        <time>2017-11-21T17:25:43.430000Z</time>
      </trkpt>
      <trkpt lat="45.53476810455322" lon="10.395598411560059">
        <ele>172.2786253006058</ele>
        <time>2017-11-21T17:25:43.880000Z</time>
      </trkpt>
      <trkpt lat="45.536184310913086" lon="10.395641326904297">
        <ele>174.0</ele>
        <time>2017-11-21T17:25:46.151000Z</time>
      </trkpt>
      <trkpt lat="45.53710707463324" lon="10.395448207855225">
        <ele>174.66666666666666</ele>
        <time>2017-11-21T17:25:47.646000Z</time>
      </trkpt>
      <trkpt lat="45.53800821304321" lon="10.395212173461914">
        <ele>174.05002881901365</ele>
        <time>2017-11-21T17:25:49.115000Z</time>
      </trkpt>
      <trkpt lat="45.53815841674805" lon="10.395126342773438">
        <ele>174.0</ele>
        <time>2017-11-21T17:25:49.374000Z</time>
      </trkpt>
      <trkpt lat="45.53852319717407" lon="10.394740104675293">
        <ele>174.33333333333334</ele>
        <time>2017-11-21T17:25:50.102000Z</time>
      </trkpt>
      <trkpt lat="45.538523280993104" lon="10.394740104675293">
        <ele>174.33333333333334</ele>
        <time>2017-11-21T17:25:50.102000Z</time>
      </trkpt>
      <trkpt lat="45.53976774215698" lon="10.393023490905762">
        <ele>174.0</ele>
        <time>2017-11-21T17:25:52.876000Z</time>
      </trkpt>
      <trkpt lat="45.53989657200873" lon="10.392658710479736">
        <ele>173.86236691720455</ele>
        <time>2017-11-21T17:25:53.335000Z</time>
      </trkpt>
      <trkpt lat="45.539939403533936" lon="10.392208099365234">
        <ele>173.37583178593889</ele>
        <time>2017-11-21T17:25:53.846000Z</time>
      </trkpt>
      <trkpt lat="45.54000377655029" lon="10.391993522644043">
        <ele>174.08033200545324</ele>
        <time>2017-11-21T17:25:54.108000Z</time>
      </trkpt>
      <trkpt lat="45.54265698079563" lon="10.387768794567233">
        <ele>175.0</ele>
        <time>2017-11-21T17:26:00.479000Z</time>
      </trkpt>
      <trkpt lat="45.542655140161514" lon="10.387771725654602">
        <ele>175.0</ele>
        <time>2017-11-21T17:26:00.483000Z</time>
      </trkpt>
      <trkpt lat="45.54265530779958" lon="10.387771474197507">
        <ele>174.99989360523122</ele>
        <time>2017-11-21T17:26:00.483000Z</time>
      </trkpt>
      <trkpt lat="45.54279327392578" lon="10.38755178451538">
        <ele>174.81900265531954</ele>
        <time>2017-11-21T17:26:00.814000Z</time>
      </trkpt>
      <trkpt lat="45.54313668049872" lon="10.386929512023926">
        <ele>174.0</ele>
        <time>2017-11-21T17:26:01.704000Z</time>
      </trkpt>
      <trkpt lat="45.5435658339411" lon="10.386242866516113">
        <ele>174.9518129403838</ele>
        <time>2017-11-21T17:26:02.737000Z</time>
      </trkpt>
      <trkpt lat="45.54455280303955" lon="10.38482666015625">
        <ele>176.96113412471152</ele>
        <time>2017-11-21T17:26:04.980000Z</time>
      </trkpt>
      <trkpt lat="45.54463531429812" lon="10.38481993458672">
        <ele>177.0</ele>
        <time>2017-11-21T17:26:05.112000Z</time>
      </trkpt>
      <trkpt lat="45.54463712498546" lon="10.38481978699565">
        <ele>177.0018170690566</ele>
        <time>2017-11-21T17:26:05.115000Z</time>
      </trkpt>
      <trkpt lat="45.544637041166425" lon="10.38481978699565">
        <ele>177.00190104678111</ele>
        <time>2017-11-21T17:26:05.115000Z</time>
      </trkpt>
      <trkpt lat="45.54481037892401" lon="10.38480520248413">
        <ele>177.17586823823225</ele>
        <time>2017-11-21T17:26:05.393000Z</time>
      </trkpt>
      <trkpt lat="45.54508924484253" lon="10.38480520248413">
        <ele>177.45526212773314</ele>
        <time>2017-11-21T17:26:05.840000Z</time>
      </trkpt>
      <trkpt lat="45.54541119374335" lon="10.385041236877441">
        <ele>178.83959456101664</ele>
        <time>2017-11-21T17:26:06.420000Z</time>
      </trkpt>
      <trkpt lat="45.54551839828491" lon="10.384998321533203">
        <ele>178.39371217662344</ele>
        <time>2017-11-21T17:26:06.598000Z</time>
      </trkpt>
      <trkpt lat="45.54551839828491" lon="10.384912490844727">
        <ele>178.5129126236161</ele>
        <time>2017-11-21T17:26:06.694000Z</time>
      </trkpt>
      <trkpt lat="45.545969093218446" lon="10.384891033172607">
        <ele>180.74047510944607</ele>
        <time>2017-11-21T17:26:07.417000Z</time>
      </trkpt>
      <trkpt lat="45.54631233215332" lon="10.384676456451416">
        <ele>181.48349725906098</ele>
        <time>2017-11-21T17:26:08.018000Z</time>
      </trkpt>
      <trkpt lat="45.546741569414735" lon="10.384268760681152">
        <ele>183.0</ele>
        <time>2017-11-21T17:26:08.844000Z</time>
      </trkpt>
      <trkpt lat="45.54704189300537" lon="10.384054183959961">
        <ele>182.64819211440604</ele>
        <time>2017-11-21T17:26:09.382000Z</time>
      </trkpt>
      <trkpt lat="45.54729946888983" lon="10.384011268615723">
        <ele>183.14872952221177</ele>
        <time>2017-11-21T17:26:09.798000Z</time>
      </trkpt>
      <trkpt lat="45.54755687713623" lon="10.384032726287842">
        <ele>186.2697746783896</ele>
        <time>2017-11-21T17:26:10.211000Z</time>
      </trkpt>
      <trkpt lat="45.5477499961853" lon="10.384140014648438">
        <ele>187.43859797781033</ele>
        <time>2017-11-21T17:26:10.543000Z</time>
      </trkpt>
      <trkpt lat="45.548222148790956" lon="10.384032726287842">
        <ele>190.1352753078245</ele>
        <time>2017-11-21T17:26:11.309000Z</time>
      </trkpt>
      <trkpt lat="45.54860830307007" lon="10.383861064910889">
        <ele>195.74981172147992</ele>
        <time>2017-11-21T17:26:11.957000Z</time>
      </trkpt>
      <trkpt lat="45.54873704910278" lon="10.383882522583008">
        <ele>196.91776549933047</ele>
        <time>2017-11-21T17:26:12.165000Z</time>
      </trkpt>
      <trkpt lat="45.54886587895453" lon="10.38383960723877">
        <ele>198.577609078136</ele>
        <time>2017-11-21T17:26:12.377000Z</time>
      </trkpt>
      <trkpt lat="45.54935932159424" lon="10.383388996124268">
        <ele>209.59332886440868</ele>
        <time>2017-11-21T17:26:13.316000Z</time>
      </trkpt>
      <trkpt lat="45.54952809297558" lon="10.383214989595038">
        <ele>211.20519430814136</ele>
        <time>2017-11-21T17:26:13.650000Z</time>
      </trkpt>
      <trkpt lat="45.54952955804765" lon="10.383213479071856">
        <ele>211.22786744197208</ele>
        <time>2017-11-21T17:26:13.653000Z</time>
      </trkpt>
      <trkpt lat="45.54952947422862" lon="10.383213562890887">
        <ele>211.22915136565499</ele>
        <time>2017-11-21T17:26:13.653000Z</time>
      </trkpt>
      <trkpt lat="45.55004596710205" lon="10.382680892944336">
        <ele>228.5563954891608</ele>
        <time>2017-11-21T17:26:14.674000Z</time>
      </trkpt>
      <trkpt lat="45.5503249168396" lon="10.381972789764404">
        <ele>231.08190959906918</ele>
        <time>2017-11-21T17:26:15.586000Z</time>
      </trkpt>
      <trkpt lat="45.55036783218384" lon="10.381715297698975">
        <ele>231.58628097309645</ele>
        <time>2017-11-21T17:26:15.883000Z</time>
      </trkpt>
      <trkpt lat="45.550453662872314" lon="10.381629467010498">
        <ele>230.32642040530843</ele>
        <time>2017-11-21T17:26:16.051000Z</time>
      </trkpt>
      <trkpt lat="45.55053949356079" lon="10.381736755371094">
        <ele>233.1321468417757</ele>
        <time>2017-11-21T17:26:16.234000Z</time>
      </trkpt>
      <trkpt lat="45.55043087168559" lon="10.3822180338505">
        <ele>235.63334834182334</ele>
        <time>2017-11-21T17:26:16.802000Z</time>
      </trkpt>
      <trkpt lat="45.55043052881956" lon="10.382219552993774">
        <ele>235.64124332909606</ele>
        <time>2017-11-21T17:26:16.803000Z</time>
      </trkpt>
      <trkpt lat="45.55043052881956" lon="10.38221930153668">
        <ele>235.64248714715268</ele>
        <time>2017-11-21T17:26:16.803000Z</time>
      </trkpt>
      <trkpt lat="45.55038928985596" lon="10.382401943206787">
        <ele>236.5917139741746</ele>
        <time>2017-11-21T17:26:17.018000Z</time>
      </trkpt>
      <trkpt lat="45.550432205200195" lon="10.382659435272217">
        <ele>238.234292870933</ele>
        <time>2017-11-21T17:26:17.315000Z</time>
      </trkpt>
      <trkpt lat="45.55049657821655" lon="10.382745265960693">
        <ele>238.85638560404655</ele>
        <time>2017-11-21T17:26:17.456000Z</time>
      </trkpt>
      <trkpt lat="45.551204681396484" lon="10.382981300354004">
        <ele>250.32586949283498</ele>
        <time>2017-11-21T17:26:18.622000Z</time>
      </trkpt>
      <trkpt lat="45.55139780044556" lon="10.383110046386719">
        <ele>251.0742283086408</ele>
        <time>2017-11-21T17:26:18.964000Z</time>
      </trkpt>
      <trkpt lat="45.551993403931334" lon="10.383746633663659">
        <ele>254.38801009801742</ele>
        <time>2017-11-21T17:26:20.157000Z</time>
      </trkpt>
      <trkpt lat="45.5519946757704" lon="10.383747993037105">
        <ele>254.40196646156937</ele>
        <time>2017-11-21T17:26:20.159000Z</time>
      </trkpt>
      <trkpt lat="45.55199459195137" lon="10.383747909218073">
        <ele>254.4028654224313</ele>
        <time>2017-11-21T17:26:20.159000Z</time>
      </trkpt>
      <trkpt lat="45.55202007293701" lon="10.383775234222412">
        <ele>254.68281090249744</ele>
        <time>2017-11-21T17:26:20.210000Z</time>
      </trkpt>
      <trkpt lat="45.552706718444824" lon="10.383517742156982">
        <ele>262.9196438843122</ele>
        <time>2017-11-21T17:26:21.348000Z</time>
      </trkpt>
      <trkpt lat="45.55298566818237" lon="10.383496284484863">
        <ele>265.3738255123156</ele>
        <time>2017-11-21T17:26:21.796000Z</time>
      </trkpt>
      <trkpt lat="45.55356502532959" lon="10.383732318878174">
        <ele>277.0</ele>
        <time>2017-11-21T17:26:22.762000Z</time>
      </trkpt>
      <trkpt lat="45.553929805755615" lon="10.38407564163208">
        <ele>277.323014043154</ele>
        <time>2017-11-21T17:26:23.462000Z</time>
      </trkpt>
      <trkpt lat="45.554401874542236" lon="10.38480520248413">
        <ele>280.503979337707</ele>
        <time>2017-11-21T17:26:24.577000Z</time>
      </trkpt>
      <trkpt lat="45.55483102798462" lon="10.38508415222168">
        <ele>270.4500768468735</ele>
        <time>2017-11-21T17:26:25.333000Z</time>
      </trkpt>
      <trkpt lat="45.55549621582031" lon="10.385127067565918">
        <ele>266.0</ele>
        <time>2017-11-21T17:26:26.400000Z</time>
      </trkpt>
      <trkpt lat="45.555968284606934" lon="10.384955406188965">
        <ele>273.1421548918294</ele>
        <time>2017-11-21T17:26:27.181000Z</time>
      </trkpt>
      <trkpt lat="45.55609703063965" lon="10.384654998779297">
        <ele>275.74548701015715</ele>
        <time>2017-11-21T17:26:27.576000Z</time>
      </trkpt>
      <trkpt lat="45.55609230940092" lon="10.384463995605346">
        <ele>277.15815113663143</ele>
        <time>2017-11-21T17:26:27.791000Z</time>
      </trkpt>
      <trkpt lat="45.55609225295484" lon="10.384461712092161">
        <ele>277.1750400564976</ele>
        <time>2017-11-21T17:26:27.794000Z</time>
      </trkpt>
      <trkpt lat="45.55609225295484" lon="10.384461963549256">
        <ele>277.1768986815892</ele>
        <time>2017-11-21T17:26:27.794000Z</time>
      </trkpt>
      <trkpt lat="45.55607557296753" lon="10.383796691894531">
        <ele>286.0973532991038</ele>
        <time>2017-11-21T17:26:28.541000Z</time>
      </trkpt>
      <trkpt lat="45.556161403656006" lon="10.38332462310791">
        <ele>296.21248783156494</ele>
        <time>2017-11-21T17:26:29.088000Z</time>
      </trkpt>
      <trkpt lat="45.5563759803772" lon="10.382916927337646">
        <ele>300.167205988282</ele>
        <time>2017-11-21T17:26:29.661000Z</time>
      </trkpt>
      <trkpt lat="45.55635452270508" lon="10.38283109664917">
        <ele>300.5603989780989</ele>
        <time>2017-11-21T17:26:29.763000Z</time>
      </trkpt>
      <trkpt lat="45.5562686920166" lon="10.38280963897705">
        <ele>301.0972820409245</ele>
        <time>2017-11-21T17:26:29.903000Z</time>
      </trkpt>
      <trkpt lat="45.555968284606934" lon="10.383217334747314">
        <ele>303.6506738414266</ele>
        <time>2017-11-21T17:26:30.567000Z</time>
      </trkpt>
      <trkpt lat="45.55551767349243" lon="10.3840970993042">
        <ele>294.57061033354347</ele>
        <time>2017-11-21T17:26:31.791000Z</time>
      </trkpt>
      <trkpt lat="45.55532455444336" lon="10.384204387664795">
        <ele>288.7675659681816</ele>
        <time>2017-11-21T17:26:32.123000Z</time>
      </trkpt>
      <trkpt lat="45.55513143539429" lon="10.384161472320557">
        <ele>294.75734810283126</ele>
        <time>2017-11-21T17:26:32.436000Z</time>
      </trkpt>
      <trkpt lat="45.55498123168945" lon="10.383989810943604">
        <ele>298.38782520180735</ele>
        <time>2017-11-21T17:26:32.744000Z</time>
      </trkpt>
      <trkpt lat="45.5548095703125" lon="10.383045673370361">
        <ele>308.84343735933226</ele>
        <time>2017-11-21T17:26:33.839000Z</time>
      </trkpt>
      <trkpt lat="45.55455207824707" lon="10.382552146911621">
        <ele>312.26242237394376</ele>
        <time>2017-11-21T17:26:34.530000Z</time>
      </trkpt>
      <trkpt lat="45.55395338120925" lon="10.382063412911725">
        <ele>314.2516580901617</ele>
        <time>2017-11-21T17:26:35.636000Z</time>
      </trkpt>
      <trkpt lat="45.55395151488483" lon="10.382061889395118">
        <ele>314.25474183540945</ele>
        <time>2017-11-21T17:26:35.639000Z</time>
      </trkpt>
      <trkpt lat="45.55395159870386" lon="10.38206197321415">
        <ele>314.2548886203894</ele>
        <time>2017-11-21T17:26:35.639000Z</time>
      </trkpt>
      <trkpt lat="45.55350065231323" lon="10.381693840026855">
        <ele>315.0</ele>
        <time>2017-11-21T17:26:36.472000Z</time>
      </trkpt>
      <trkpt lat="45.553436279296875" lon="10.381543636322021">
        <ele>318.3256530486539</ele>
        <time>2017-11-21T17:26:36.670000Z</time>
      </trkpt>
      <trkpt lat="45.55350065231323" lon="10.381457805633545">
        <ele>318.7962887921714</ele>
        <time>2017-11-21T17:26:36.811000Z</time>
      </trkpt>
      <trkpt lat="45.55356502532959" lon="10.381479263305664">
        <ele>319.14954072998165</ele>
        <time>2017-11-21T17:26:36.917000Z</time>
      </trkpt>
      <trkpt lat="45.55386543273926" lon="10.381650924682617">
        <ele>320.8786447596704</ele>
        <time>2017-11-21T17:26:37.436000Z</time>
      </trkpt>
      <trkpt lat="45.55461645126343" lon="10.381543636322021">
        <ele>325.91206855338555</ele>
        <time>2017-11-21T17:26:38.646000Z</time>
      </trkpt>
      <trkpt lat="45.55502414703369" lon="10.38156509399414">
        <ele>330.0405682553306</ele>
        <time>2017-11-21T17:26:39.300000Z</time>
      </trkpt>
      <trkpt lat="45.555925369262695" lon="10.380899906158447">
        <ele>337.0</ele>
        <time>2017-11-21T17:26:40.926000Z</time>
      </trkpt>
      <trkpt lat="45.55678367614746" lon="10.380513668060303">
        <ele>342.30182810025485</ele>
        <time>2017-11-21T17:26:42.369000Z</time>
      </trkpt>
      <trkpt lat="45.55689096450806" lon="10.380406379699707">
        <ele>342.7413297643502</ele>
        <time>2017-11-21T17:26:42.579000Z</time>
      </trkpt>
      <trkpt lat="45.55704116821289" lon="10.38008451461792">
        <ele>343.6501574593855</ele>
        <time>2017-11-21T17:26:43.013000Z</time>
      </trkpt>
      <trkpt lat="45.5571206664166" lon="10.379319323528511">
        <ele>346.13440420177034</ele>
        <time>2017-11-21T17:26:43.881000Z</time>
      </trkpt>
      <trkpt lat="45.55712079629302" lon="10.379318073391914">
        <ele>346.1400526903297</ele>
        <time>2017-11-21T17:26:43.883000Z</time>
      </trkpt>
      <trkpt lat="45.55712079629302" lon="10.379318157210946">
        <ele>346.1404273085927</ele>
        <time>2017-11-21T17:26:43.885000Z</time>
      </trkpt>
      <trkpt lat="45.557212913408875" lon="10.378432273864746">
        <ele>352.4765179791414</ele>
        <time>2017-11-21T17:26:44.890000Z</time>
      </trkpt>
      <trkpt lat="45.55729866027832" lon="10.378260612487793">
        <ele>356.77024675552417</ele>
        <time>2017-11-21T17:26:45.127000Z</time>
      </trkpt>
      <trkpt lat="45.55757761001587" lon="10.377960205078125">
        <ele>364.075648731356</ele>
        <time>2017-11-21T17:26:45.687000Z</time>
      </trkpt>
      <trkpt lat="45.557684898376465" lon="10.37757396697998">
        <ele>367.9386819306116</ele>
        <time>2017-11-21T17:26:46.153000Z</time>
      </trkpt>
      <trkpt lat="45.557663440704346" lon="10.377295017242432">
        <ele>374.2142977381655</ele>
        <time>2017-11-21T17:26:46.468000Z</time>
      </trkpt>
      <trkpt lat="45.5573844909668" lon="10.376887321472168">
        <ele>373.4155771170203</ele>
        <time>2017-11-21T17:26:47.108000Z</time>
      </trkpt>
      <trkpt lat="45.557148456573486" lon="10.376737117767334">
        <ele>372.7711751271698</ele>
        <time>2017-11-21T17:26:47.522000Z</time>
      </trkpt>
      <trkpt lat="45.55678367614746" lon="10.376737117767334">
        <ele>371.86149956531443</ele>
        <time>2017-11-21T17:26:48.107000Z</time>
      </trkpt>
      <trkpt lat="45.556461811065674" lon="10.376908779144287">
        <ele>371.00470204826007</ele>
        <time>2017-11-21T17:26:48.658000Z</time>
      </trkpt>
      <trkpt lat="45.55629014968872" lon="10.377166271209717">
        <ele>370.2428669780623</ele>
        <time>2017-11-21T17:26:49.057000Z</time>
      </trkpt>
      <trkpt lat="45.556204319000244" lon="10.377960205078125">
        <ele>366.5214727848843</ele>
        <time>2017-11-21T17:26:49.959000Z</time>
      </trkpt>
      <trkpt lat="45.55612276359494" lon="10.378164134999261">
        <ele>366.01824252290044</ele>
        <time>2017-11-21T17:26:50.223000Z</time>
      </trkpt>
      <trkpt lat="45.556121757254004" lon="10.37816665135324">
        <ele>366.02391952245785</ele>
        <time>2017-11-21T17:26:50.226000Z</time>
      </trkpt>
      <trkpt lat="45.556121841073036" lon="10.378166399896145">
        <ele>366.0244651056932</ele>
        <time>2017-11-21T17:26:50.227000Z</time>
      </trkpt>
      <trkpt lat="45.55611848831177" lon="10.378174781799316">
        <ele>366.0433759578652</ele>
        <time>2017-11-21T17:26:50.238000Z</time>
      </trkpt>
      <trkpt lat="45.555925369262695" lon="10.378282070159912">
        <ele>367.81325377398827</ele>
        <time>2017-11-21T17:26:50.570000Z</time>
      </trkpt>
      <trkpt lat="45.55532463826239" lon="10.37834644317627">
        <ele>376.6253080710003</ele>
        <time>2017-11-21T17:26:51.536000Z</time>
      </trkpt>
      <trkpt lat="45.555195808410645" lon="10.378196239471436">
        <ele>381.0457973779061</ele>
        <time>2017-11-21T17:26:51.803000Z</time>
      </trkpt>
      <trkpt lat="45.555152893066406" lon="10.377938747406006">
        <ele>382.6288123210176</ele>
        <time>2017-11-21T17:26:52.100000Z</time>
      </trkpt>
      <trkpt lat="45.555217266082764" lon="10.376780033111572">
        <ele>390.2472202665631</ele>
        <time>2017-11-21T17:26:53.405000Z</time>
      </trkpt>
      <trkpt lat="45.55532455444336" lon="10.376629829406738">
        <ele>395.07462994731105</ele>
        <time>2017-11-21T17:26:53.646000Z</time>
      </trkpt>
      <trkpt lat="45.55546739706517" lon="10.376607037123138">
        <ele>396.185072069926</ele>
        <time>2017-11-21T17:26:53.876000Z</time>
      </trkpt>
      <trkpt lat="45.55547006428242" lon="10.376606611534953">
        <ele>396.2004842074284</ele>
        <time>2017-11-21T17:26:53.880000Z</time>
      </trkpt>
      <trkpt lat="45.555469980463386" lon="10.376606611534953">
        <ele>396.2009655487985</ele>
        <time>2017-11-21T17:26:53.880000Z</time>
      </trkpt>
      <trkpt lat="45.55586108006537" lon="10.376543998718262">
        <ele>396.79430549946443</ele>
        <time>2017-11-21T17:26:54.511000Z</time>
      </trkpt>
      <trkpt lat="45.55622577667236" lon="10.375986099243164">
        <ele>400.60259094460463</ele>
        <time>2017-11-21T17:26:55.368000Z</time>
      </trkpt>
      <trkpt lat="45.557448863983154" lon="10.374977588653564">
        <ele>419.0</ele>
        <time>2017-11-21T17:26:57.632000Z</time>
      </trkpt>
      <trkpt lat="45.55753469467163" lon="10.374763011932373">
        <ele>413.7293192432682</ele>
        <time>2017-11-21T17:26:57.909000Z</time>
      </trkpt>
      <trkpt lat="45.55759906768799" lon="10.374312400817871">
        <ele>411.9849157607159</ele>
        <time>2017-11-21T17:26:58.425000Z</time>
      </trkpt>
      <trkpt lat="45.557684898376465" lon="10.374140739440918">
        <ele>419.12733970860387</ele>
        <time>2017-11-21T17:26:58.662000Z</time>
      </trkpt>
      <trkpt lat="45.55787801742554" lon="10.373926162719727">
        <ele>421.57215716578884</ele>
        <time>2017-11-21T17:26:59.054000Z</time>
      </trkpt>
      <trkpt lat="45.55804967880249" lon="10.37381887435913">
        <ele>423.44443024525987</ele>
        <time>2017-11-21T17:26:59.354000Z</time>
      </trkpt>
      <trkpt lat="45.558435916900635" lon="10.373497009277344">
        <ele>421.9125952069226</ele>
        <time>2017-11-21T17:27:00.071000Z</time>
      </trkpt>
      <trkpt lat="45.55875778198242" lon="10.372488498687744">
        <ele>442.0</ele>
        <time>2017-11-21T17:27:01.315000Z</time>
      </trkpt>
      <trkpt lat="45.55876528306078" lon="10.372478607885823">
        <ele>441.8935115694332</ele>
        <time>2017-11-21T17:27:01.331000Z</time>
      </trkpt>
      <trkpt lat="45.558767253533006" lon="10.372476009652019">
        <ele>441.8655379227641</ele>
        <time>2017-11-21T17:27:01.335000Z</time>
      </trkpt>
      <trkpt lat="45.558767169713974" lon="10.372476009652019">
        <ele>441.86466363042337</ele>
        <time>2017-11-21T17:27:01.335000Z</time>
      </trkpt>
      <trkpt lat="45.55927276611328" lon="10.371801853179932">
        <ele>426.3164747308267</ele>
        <time>2017-11-21T17:27:02.444000Z</time>
      </trkpt>
      <trkpt lat="45.5597448348999" lon="10.370900630950928">
        <ele>439.54054534646497</ele>
        <time>2017-11-21T17:27:03.707000Z</time>
      </trkpt>
      <trkpt lat="45.560410022735596" lon="10.370042324066162">
        <ele>452.0</ele>
        <time>2017-11-21T17:27:05.144000Z</time>
      </trkpt>
      <trkpt lat="45.560646057128906" lon="10.369870662689209">
        <ele>461.4482808708385</ele>
        <time>2017-11-21T17:27:05.569000Z</time>
      </trkpt>
      <trkpt lat="45.5608606338501" lon="10.36984920501709">
        <ele>467.89512054435505</ele>
        <time>2017-11-21T17:27:05.914000Z</time>
      </trkpt>
      <trkpt lat="45.56101083755493" lon="10.369892120361328">
        <ele>468.92545162917844</ele>
        <time>2017-11-21T17:27:06.160000Z</time>
      </trkpt>
      <trkpt lat="45.56135416030884" lon="10.370793342590332">
        <ele>468.4239124307955</ele>
        <time>2017-11-21T17:27:07.312000Z</time>
      </trkpt>
      <trkpt lat="45.56148290634155" lon="10.370986461639404">
        <ele>464.120653105529</ele>
        <time>2017-11-21T17:27:07.611000Z</time>
      </trkpt>
      <trkpt lat="45.56161165237427" lon="10.370986461639404">
        <ele>465.0215994758135</ele>
        <time>2017-11-21T17:27:07.817000Z</time>
      </trkpt>
      <trkpt lat="45.561954975128174" lon="10.370814800262451">
        <ele>477.2337489292592</ele>
        <time>2017-11-21T17:27:08.400000Z</time>
      </trkpt>
      <trkpt lat="45.56230245656707" lon="10.370778896896358">
        <ele>479.67172882160486</ele>
        <time>2017-11-21T17:27:08.959000Z</time>
      </trkpt>
      <trkpt lat="45.562305422499776" lon="10.37077859044075">
        <ele>479.66364259417446</ele>
        <time>2017-11-21T17:27:08.964000Z</time>
      </trkpt>
      <trkpt lat="45.56257724761963" lon="10.370750427246094">
        <ele>479.25586976057065</ele>
        <time>2017-11-21T17:27:09.401000Z</time>
      </trkpt>
      <trkpt lat="45.5633282661438" lon="10.37085771560669">
        <ele>471.20346306836456</ele>
        <time>2017-11-21T17:27:10.611000Z</time>
      </trkpt>
      <trkpt lat="45.563435554504395" lon="10.370943546295166">
        <ele>474.3308330390841</ele>
        <time>2017-11-21T17:27:10.808000Z</time>
      </trkpt>
      <trkpt lat="45.56360729970038" lon="10.371265411376953">
        <ele>476.16033079119626</ele>
        <time>2017-11-21T17:27:11.262000Z</time>
      </trkpt>
      <trkpt lat="45.56373596191406" lon="10.371286869049072">
        <ele>477.0436487685545</ele>
        <time>2017-11-21T17:27:11.470000Z</time>
      </trkpt>
      <trkpt lat="45.56401491165161" lon="10.370965003967285">
        <ele>479.48894917038933</ele>
        <time>2017-11-21T17:27:12.045000Z</time>
      </trkpt>
      <trkpt lat="45.5642294883728" lon="10.370814800262451">
        <ele>484.7850982932417</ele>
        <time>2017-11-21T17:27:12.428000Z</time>
      </trkpt>
      <trkpt lat="45.56461572647095" lon="10.37036418914795">
        <ele>488.18579459751055</ele>
        <time>2017-11-21T17:27:13.227000Z</time>
      </trkpt>
      <trkpt lat="45.56463066965607" lon="10.370199239401842">
        <ele>488.87878631387065</ele>
        <time>2017-11-21T17:27:13.414000Z</time>
      </trkpt>
      <trkpt lat="45.56463098153472" lon="10.370195796713233">
        <ele>488.89324983626847</ele>
        <time>2017-11-21T17:27:13.418000Z</time>
      </trkpt>
      <trkpt lat="45.56463098153472" lon="10.370196048170328">
        <ele>488.89429753034347</ele>
        <time>2017-11-21T17:27:13.418000Z</time>
      </trkpt>
      <trkpt lat="45.564637184143066" lon="10.370128154754639">
        <ele>489.1795731753168</ele>
        <time>2017-11-21T17:27:13.495000Z</time>
      </trkpt>
      <trkpt lat="45.564165115356445" lon="10.369548797607422">
        <ele>495.5502389409459</ele>
        <time>2017-11-21T17:27:14.493000Z</time>
      </trkpt>
      <trkpt lat="45.56407928466797" lon="10.36935567855835">
        <ele>496.8359022669863</ele>
        <time>2017-11-21T17:27:14.750000Z</time>
      </trkpt>
      <trkpt lat="45.56412220001221" lon="10.369141101837158">
        <ele>501.00510607095003</ele>
        <time>2017-11-21T17:27:15Z</time>
      </trkpt>
      <trkpt lat="45.56419625903296" lon="10.369122647522822">
        <ele>505.5676992914761</ele>
        <time>2017-11-21T17:27:15.121000Z</time>
      </trkpt>
      <trkpt lat="45.56419922970235" lon="10.369121907278895">
        <ele>505.5902661375824</ele>
        <time>2017-11-21T17:27:15.126000Z</time>
      </trkpt>
      <trkpt lat="45.56419906206429" lon="10.369121991097927">
        <ele>505.59159530436926</ele>
        <time>2017-11-21T17:27:15.126000Z</time>
      </trkpt>
      <trkpt lat="45.56437969207764" lon="10.3690767288208">
        <ele>506.9639881992345</ele>
        <time>2017-11-21T17:27:15.420000Z</time>
      </trkpt>
      <trkpt lat="45.56448698043823" lon="10.369119644165039">
        <ele>507.7977722421451</ele>
        <time>2017-11-21T17:27:15.599000Z</time>
      </trkpt>
      <trkpt lat="45.56474447250366" lon="10.369462966918945">
        <ele>506.1004643138817</ele>
        <time>2017-11-21T17:27:16.164000Z</time>
      </trkpt>
      <trkpt lat="45.56485176086426" lon="10.369484424591064">
        <ele>506.9111919547813</ele>
        <time>2017-11-21T17:27:16.338000Z</time>
      </trkpt>
      <trkpt lat="45.564916133880615" lon="10.369398593902588">
        <ele>507.5701973683919</ele>
        <time>2017-11-21T17:27:16.479000Z</time>
      </trkpt>
      <trkpt lat="45.56487321853638" lon="10.369269847869873">
        <ele>508.3172799229055</ele>
        <time>2017-11-21T17:27:16.639000Z</time>
      </trkpt>
      <trkpt lat="45.56474826172079" lon="10.369103266248514">
        <ele>513.9975153385757</ele>
        <time>2017-11-21T17:27:16.913000Z</time>
      </trkpt>
      <trkpt lat="45.564746148884296" lon="10.369100449606776">
        <ele>514.0202894433027</ele>
        <time>2017-11-21T17:27:16.918000Z</time>
      </trkpt>
      <trkpt lat="45.56474623270333" lon="10.36910061724484">
        <ele>514.0214259203418</ele>
        <time>2017-11-21T17:27:16.918000Z</time>
      </trkpt>
      <trkpt lat="45.56461572647095" lon="10.368926525115967">
        <ele>515.4285699487178</ele>
        <time>2017-11-21T17:27:17.204000Z</time>
      </trkpt>
      <trkpt lat="45.56433686055243" lon="10.368154048919678">
        <ele>525.2234273581652</ele>
        <time>2017-11-21T17:27:18.179000Z</time>
      </trkpt>
      <trkpt lat="45.56436226343176" lon="10.368077521756124">
        <ele>525.352040365418</ele>
        <time>2017-11-21T17:27:18.274000Z</time>
      </trkpt>
      <trkpt lat="45.56436359882355" lon="10.3680734988302">
        <ele>525.3588013692492</ele>
        <time>2017-11-21T17:27:18.279000Z</time>
      </trkpt>
      <trkpt lat="45.564363515004516" lon="10.368073750287294">
        <ele>525.359224297572</ele>
        <time>2017-11-21T17:27:18.279000Z</time>
      </trkpt>
      <trkpt lat="45.56437969207764" lon="10.368025302886963">
        <ele>525.4407345389252</ele>
        <time>2017-11-21T17:27:18.339000Z</time>
      </trkpt>
      <trkpt lat="45.56446552276611" lon="10.368003845214844">
        <ele>525.6297363569403</ele>
        <time>2017-11-21T17:27:18.479000Z</time>
      </trkpt>
      <trkpt lat="45.56472301483154" lon="10.36858320236206">
        <ele>521.6718399365883</ele>
        <time>2017-11-21T17:27:19.249000Z</time>
      </trkpt>
      <trkpt lat="45.56540974415839" lon="10.368969440460205">
        <ele>527.5998972278056</ele>
        <time>2017-11-21T17:27:20.432000Z</time>
      </trkpt>
      <trkpt lat="45.565924644470215" lon="10.369248390197754">
        <ele>529.0385089937007</ele>
        <time>2017-11-21T17:27:21.315000Z</time>
      </trkpt>
      <trkpt lat="45.56599231609424" lon="10.369304823351678">
        <ele>529.2809024050247</ele>
        <time>2017-11-21T17:27:21.441000Z</time>
      </trkpt>
      <trkpt lat="45.56599530391395" lon="10.36930731497705">
        <ele>529.3021613699375</ele>
        <time>2017-11-21T17:27:21.447000Z</time>
      </trkpt>
      <trkpt lat="45.56599538773298" lon="10.36930731497705">
        <ele>529.3026764094565</ele>
        <time>2017-11-21T17:27:21.447000Z</time>
      </trkpt>
      <trkpt lat="45.56592472828925" lon="10.369248390197754">
        <ele>529.8054331774864</ele>
        <time>2017-11-21T17:27:21.578000Z</time>
      </trkpt>
      <trkpt lat="45.56601047515869" lon="10.369205474853516">
        <ele>530.3637254477377</ele>
        <time>2017-11-21T17:27:21.724000Z</time>
      </trkpt>
      <trkpt lat="45.56601047515869" lon="10.369055271148682">
        <ele>535.009871375528</ele>
        <time>2017-11-21T17:27:21.893000Z</time>
      </trkpt>
      <trkpt lat="45.56513071060181" lon="10.368046760559082">
        <ele>543.2746763299036</ele>
        <time>2017-11-21T17:27:23.701000Z</time>
      </trkpt>
      <trkpt lat="45.564975628100285" lon="10.367814219370413">
        <ele>539.7281220325378</ele>
        <time>2017-11-21T17:27:24.061000Z</time>
      </trkpt>
      <trkpt lat="45.564973298460245" lon="10.367810726165771">
        <ele>539.7399409534233</ele>
        <time>2017-11-21T17:27:24.066000Z</time>
      </trkpt>
      <trkpt lat="45.56497338227928" lon="10.367810726165771">
        <ele>539.7402342540146</ele>
        <time>2017-11-21T17:27:24.066000Z</time>
      </trkpt>
      <trkpt lat="45.56483030319214" lon="10.36759614944458">
        <ele>540.4661782109944</ele>
        <time>2017-11-21T17:27:24.399000Z</time>
      </trkpt>
      <trkpt lat="45.56474447250366" lon="10.367403030395508">
        <ele>546.3598971670879</ele>
        <time>2017-11-21T17:27:24.656000Z</time>
      </trkpt>
      <trkpt lat="45.56461572647095" lon="10.366759300231934">
        <ele>548.0</ele>
        <time>2017-11-21T17:27:25.407000Z</time>
      </trkpt>
      <trkpt lat="45.56455135345459" lon="10.366394519805908">
        <ele>551.3333333333334</ele>
        <time>2017-11-21T17:27:25.829000Z</time>
      </trkpt>
      <trkpt lat="45.56452989578247" lon="10.365772247314453">
        <ele>551.3333333333334</ele>
        <time>2017-11-21T17:27:26.528000Z</time>
      </trkpt>
      <trkpt lat="45.56455027753338" lon="10.364915963643833">
        <ele>548.0</ele>
        <time>2017-11-21T17:27:27.490000Z</time>
      </trkpt>
      <trkpt lat="45.56455034762621" lon="10.364913018420339">
        <ele>548.0025424451779</ele>
        <time>2017-11-21T17:27:27.493000Z</time>
      </trkpt>
      <trkpt lat="45.56455135345459" lon="10.36487102508545">
        <ele>548.0387931902641</ele>
        <time>2017-11-21T17:27:27.540000Z</time>
      </trkpt>
      <trkpt lat="45.564680099487305" lon="10.364484786987305">
        <ele>548.407859264396</ele>
        <time>2017-11-21T17:27:28.020000Z</time>
      </trkpt>
      <trkpt lat="45.56487321853638" lon="10.364184379577637">
        <ele>548.7597206437356</ele>
        <time>2017-11-21T17:27:28.478000Z</time>
      </trkpt>
      <trkpt lat="45.56530237197876" lon="10.363926887512207">
        <ele>551.8479416477752</ele>
        <time>2017-11-21T17:27:29.224000Z</time>
      </trkpt>
      <trkpt lat="45.565452575683594" lon="10.363883972167969">
        <ele>552.5221841048884</ele>
        <time>2017-11-21T17:27:29.470000Z</time>
      </trkpt>
      <trkpt lat="45.56588172912598" lon="10.363948345184326">
        <ele>557.4215589687436</ele>
        <time>2017-11-21T17:27:30.162000Z</time>
      </trkpt>
      <trkpt lat="45.56600714235715" lon="10.364031953999644">
        <ele>558.0307501079711</ele>
        <time>2017-11-21T17:27:30.384000Z</time>
      </trkpt>
      <trkpt lat="45.56601047515869" lon="10.364034175872803">
        <ele>558.0469391020961</ele>
        <time>2017-11-21T17:27:30.390000Z</time>
      </trkpt>
      <trkpt lat="45.566225135698915" lon="10.365257263183594">
        <ele>561.9325611276332</ele>
        <time>2017-11-21T17:27:31.805000Z</time>
      </trkpt>
      <trkpt lat="45.56622505187988" lon="10.36585807800293">
        <ele>566.0400162318223</ele>
        <time>2017-11-21T17:27:32.479000Z</time>
      </trkpt>
      <trkpt lat="45.56631088256836" lon="10.366051197052002">
        <ele>566.8356391563447</ele>
        <time>2017-11-21T17:27:32.736000Z</time>
      </trkpt>
      <trkpt lat="45.56648254394531" lon="10.366265773773193">
        <ele>567.9689347156379</ele>
        <time>2017-11-21T17:27:33.102000Z</time>
      </trkpt>
      <trkpt lat="45.5672550201416" lon="10.366995334625244">
        <ele>577.4282165779811</ele>
        <time>2017-11-21T17:27:34.587000Z</time>
      </trkpt>
      <trkpt lat="45.567360409370394" lon="10.36703032935527">
        <ele>578.1829112135277</ele>
        <time>2017-11-21T17:27:34.760000Z</time>
      </trkpt>
      <trkpt lat="45.56736406870186" lon="10.367031544446945">
        <ele>578.2091157710207</ele>
        <time>2017-11-21T17:27:34.766000Z</time>
      </trkpt>
      <trkpt lat="45.56736398488283" lon="10.367031544446945">
        <ele>578.2097004124989</ele>
        <time>2017-11-21T17:27:34.766000Z</time>
      </trkpt>
      <trkpt lat="45.56751251220703" lon="10.36708116531372">
        <ele>581.6069761043932</ele>
        <time>2017-11-21T17:27:35.011000Z</time>
      </trkpt>
      <trkpt lat="45.56807049550116" lon="10.36710262298584">
        <ele>584.7177677409068</ele>
        <time>2017-11-21T17:27:35.906000Z</time>
      </trkpt>
      <trkpt lat="45.56852102279663" lon="10.366952419281006">
        <ele>588.0077616119237</ele>
        <time>2017-11-21T17:27:36.648000Z</time>
      </trkpt>
      <trkpt lat="45.56903600692749" lon="10.366501808166504">
        <ele>595.7655569927055</ele>
        <time>2017-11-21T17:27:37.616000Z</time>
      </trkpt>
      <trkpt lat="45.56940727525806" lon="10.36656913060117">
        <ele>601.9306409249888</ele>
        <time>2017-11-21T17:27:38.216000Z</time>
      </trkpt>
      <trkpt lat="45.56941134855151" lon="10.366569869220257">
        <ele>601.9470805008424</ele>
        <time>2017-11-21T17:27:38.222000Z</time>
      </trkpt>
      <trkpt lat="45.56950807571411" lon="10.36658763885498">
        <ele>602.3375473671786</ele>
        <time>2017-11-21T17:27:38.378000Z</time>
      </trkpt>
      <trkpt lat="45.569658279418945" lon="10.366823673248291">
        <ele>599.2316031608034</ele>
        <time>2017-11-21T17:27:38.736000Z</time>
      </trkpt>
      <trkpt lat="45.57004451751709" lon="10.368432998657227">
        <ele>606.0</ele>
        <time>2017-11-21T17:27:40.645000Z</time>
      </trkpt>
      <trkpt lat="45.57016403742327" lon="10.368690432473482">
        <ele>606.6010966274513</ele>
        <time>2017-11-21T17:27:40.992000Z</time>
      </trkpt>
      <trkpt lat="45.570165971294045" lon="10.36869459785521">
        <ele>606.6108225964533</ele>
        <time>2017-11-21T17:27:40.998000Z</time>
      </trkpt>
      <trkpt lat="45.570165887475014" lon="10.368694430217147">
        <ele>606.6112234653696</ele>
        <time>2017-11-21T17:27:40.998000Z</time>
      </trkpt>
      <trkpt lat="45.57032355107367" lon="10.369033813476562">
        <ele>607.4038154267937</ele>
        <time>2017-11-21T17:27:41.455000Z</time>
      </trkpt>
      <trkpt lat="45.57047367095947" lon="10.369184017181396">
        <ele>606.49874199661</ele>
        <time>2017-11-21T17:27:41.749000Z</time>
      </trkpt>
      <trkpt lat="45.570945739746094" lon="10.369462966918945">
        <ele>614.8839829623877</ele>
        <time>2017-11-21T17:27:42.568000Z</time>
      </trkpt>
      <trkpt lat="45.57109594345093" lon="10.369913578033447">
        <ele>616.5141885939806</ele>
        <time>2017-11-21T17:27:43.128000Z</time>
      </trkpt>
      <trkpt lat="45.57122468948364" lon="10.3700852394104">
        <ele>614.4400470293839</ele>
        <time>2017-11-21T17:27:43.410000Z</time>
      </trkpt>
      <trkpt lat="45.57178258895874" lon="10.370385646820068">
        <ele>620.98418890934</ele>
        <time>2017-11-21T17:27:44.366000Z</time>
      </trkpt>
      <trkpt lat="45.5718378805446" lon="10.370371804373152">
        <ele>621.0668039457432</ele>
        <time>2017-11-21T17:27:44.456000Z</time>
      </trkpt>
      <trkpt lat="45.57184184901416" lon="10.370370810851455">
        <ele>621.0727335146372</ele>
        <time>2017-11-21T17:27:44.462000Z</time>
      </trkpt>
      <trkpt lat="45.5718416813761" lon="10.370370810851455">
        <ele>621.0729802343322</ele>
        <time>2017-11-21T17:27:44.462000Z</time>
      </trkpt>
      <trkpt lat="45.57186841964722" lon="10.37036418914795">
        <ele>621.1129189661721</ele>
        <time>2017-11-21T17:27:44.505000Z</time>
      </trkpt>
      <trkpt lat="45.57186841964722" lon="10.370213985443115">
        <ele>621.2676646657188</ele>
        <time>2017-11-21T17:27:44.674000Z</time>
      </trkpt>
      <trkpt lat="45.571653842926025" lon="10.369956493377686">
        <ele>618.3467674371446</ele>
        <time>2017-11-21T17:27:45.123000Z</time>
      </trkpt>
      <trkpt lat="45.57156801223755" lon="10.369699001312256">
        <ele>619.2815026259203</ele>
        <time>2017-11-21T17:27:45.443000Z</time>
      </trkpt>
      <trkpt lat="45.57125924987385" lon="10.36811625923902">
        <ele>629.0</ele>
        <time>2017-11-21T17:27:47.287000Z</time>
      </trkpt>
      <trkpt lat="45.57125888764858" lon="10.368114402517676">
        <ele>629.0125449520532</ele>
        <time>2017-11-21T17:27:47.289000Z</time>
      </trkpt>
      <trkpt lat="45.57125888764858" lon="10.36811457015574">
        <ele>629.0136360216533</ele>
        <time>2017-11-21T17:27:47.289000Z</time>
      </trkpt>
      <trkpt lat="45.57122468948364" lon="10.367939472198486">
        <ele>630.1967836338463</ele>
        <time>2017-11-21T17:27:47.493000Z</time>
      </trkpt>
      <trkpt lat="45.5712890625" lon="10.366523265838623">
        <ele>645.1002124769238</ele>
        <time>2017-11-21T17:27:49.086000Z</time>
      </trkpt>
      <trkpt lat="45.57138519703984" lon="10.366539167791405">
        <ele>646.0</ele>
        <time>2017-11-21T17:27:49.241000Z</time>
      </trkpt>
      <trkpt lat="45.57138939388096" lon="10.366539862006903">
        <ele>646.0075660552085</ele>
        <time>2017-11-21T17:27:49.248000Z</time>
      </trkpt>
      <trkpt lat="45.571417808532715" lon="10.366544723510742">
        <ele>646.0588155782312</ele>
        <time>2017-11-21T17:27:49.294000Z</time>
      </trkpt>
      <trkpt lat="45.57158946990967" lon="10.367209911346436">
        <ele>642.9475647907037</ele>
        <time>2017-11-21T17:27:50.090000Z</time>
      </trkpt>
      <trkpt lat="45.5716834763586" lon="10.367350880313488">
        <ele>647.1916379587302</ele>
        <time>2017-11-21T17:27:50.308000Z</time>
      </trkpt>
      <trkpt lat="45.5716862808913" lon="10.367355085909367">
        <ele>647.198919503023</ele>
        <time>2017-11-21T17:27:50.315000Z</time>
      </trkpt>
      <trkpt lat="45.571686113253236" lon="10.36735475063324">
        <ele>647.1994360145374</ele>
        <time>2017-11-21T17:27:50.315000Z</time>
      </trkpt>
      <trkpt lat="45.57171821594238" lon="10.367403030395508">
        <ele>647.2829124672209</ele>
        <time>2017-11-21T17:27:50.390000Z</time>
      </trkpt>
      <trkpt lat="45.57171821594238" lon="10.367166996002197">
        <ele>647.5788077356549</ele>
        <time>2017-11-21T17:27:50.655000Z</time>
      </trkpt>
      <trkpt lat="45.57161092758179" lon="10.366888046264648">
        <ele>643.9778098200126</ele>
        <time>2017-11-21T17:27:51.012000Z</time>
      </trkpt>
      <trkpt lat="45.571417808532715" lon="10.365900993347168">
        <ele>649.262618781294</ele>
        <time>2017-11-21T17:27:52.162000Z</time>
      </trkpt>
      <trkpt lat="45.57113768370629" lon="10.365469891580812">
        <ele>656.008765490169</ele>
        <time>2017-11-21T17:27:52.822000Z</time>
      </trkpt>
      <trkpt lat="45.571134919300675" lon="10.365465637296438">
        <ele>656.0325320205394</ele>
        <time>2017-11-21T17:27:52.828000Z</time>
      </trkpt>
      <trkpt lat="45.57113475166261" lon="10.365465469658375">
        <ele>656.0337288975858</ele>
        <time>2017-11-21T17:27:52.828000Z</time>
      </trkpt>
      <trkpt lat="45.57085990905762" lon="10.365042686462402">
        <ele>658.396086500558</ele>
        <time>2017-11-21T17:27:53.475000Z</time>
      </trkpt>
      <trkpt lat="45.57060241699219" lon="10.364527702331543">
        <ele>658.0287433056686</ele>
        <time>2017-11-21T17:27:54.185000Z</time>
      </trkpt>
      <trkpt lat="45.57045221328735" lon="10.364141464233398">
        <ele>661.3698282546483</ele>
        <time>2017-11-21T17:27:54.681000Z</time>
      </trkpt>
      <trkpt lat="45.570173263549805" lon="10.362918376922607">
        <ele>664.0</ele>
        <time>2017-11-21T17:27:56.125000Z</time>
      </trkpt>
      <trkpt lat="45.5702805519104" lon="10.362038612365723">
        <ele>666.5175353834342</ele>
        <time>2017-11-21T17:27:57.127000Z</time>
      </trkpt>
      <trkpt lat="45.570245054537736" lon="10.361683721103327">
        <ele>666.8591117608248</ele>
        <time>2017-11-21T17:27:57.529000Z</time>
      </trkpt>
      <trkpt lat="45.57024450972676" lon="10.361678274348378">
        <ele>666.8529636841139</ele>
        <time>2017-11-21T17:27:57.535000Z</time>
      </trkpt>
      <trkpt lat="45.57024442590773" lon="10.361678022891283">
        <ele>666.8526524751886</ele>
        <time>2017-11-21T17:27:57.535000Z</time>
      </trkpt>
      <trkpt lat="45.570194721221924" lon="10.361180305480957">
        <ele>664.9575332906877</ele>
        <time>2017-11-21T17:27:58.099000Z</time>
      </trkpt>
      <trkpt lat="45.570194805040956" lon="10.360901355743408">
        <ele>664.6458316234381</ele>
        <time>2017-11-21T17:27:58.412000Z</time>
      </trkpt>
      <trkpt lat="45.570216262713075" lon="10.360751152038574">
        <ele>664.4745331417944</ele>
        <time>2017-11-21T17:27:58.584000Z</time>
      </trkpt>
      <trkpt lat="45.57032346725464" lon="10.360407829284668">
        <ele>664.05446614469</ele>
        <time>2017-11-21T17:27:59.006000Z</time>
      </trkpt>
      <trkpt lat="45.57058095932007" lon="10.36008596420288">
        <ele>663.5083120653516</ele>
        <time>2017-11-21T17:27:59.555000Z</time>
      </trkpt>
      <trkpt lat="45.570902824401855" lon="10.360043048858643">
        <ele>661.3884544908929</ele>
        <time>2017-11-21T17:28:00.073000Z</time>
      </trkpt>
      <trkpt lat="45.57114451210533" lon="10.359891911738282">
        <ele>660.4947263020886</ele>
        <time>2017-11-21T17:28:00.496000Z</time>
      </trkpt>
      <trkpt lat="45.57114891707897" lon="10.359889157116413">
        <ele>660.4905879004768</ele>
        <time>2017-11-21T17:28:00.504000Z</time>
      </trkpt>
      <trkpt lat="45.571149084717035" lon="10.359889157116413">
        <ele>660.4904436253842</ele>
        <time>2017-11-21T17:28:00.504000Z</time>
      </trkpt>
      <trkpt lat="45.57124614715576" lon="10.359828472137451">
        <ele>660.3992580502982</ele>
        <time>2017-11-21T17:28:00.674000Z</time>
      </trkpt>
      <trkpt lat="45.57152509689331" lon="10.35987138748169">
        <ele>660.1577960931254</ele>
        <time>2017-11-21T17:28:01.124000Z</time>
      </trkpt>
      <trkpt lat="45.571675300598145" lon="10.360021591186523">
        <ele>661.3333333333334</ele>
        <time>2017-11-21T17:28:01.418000Z</time>
      </trkpt>
      <trkpt lat="45.571889877319336" lon="10.360579490661621">
        <ele>661.1039134556901</ele>
        <time>2017-11-21T17:28:02.132000Z</time>
      </trkpt>
      <trkpt lat="45.57204008102417" lon="10.360643863677979">
        <ele>661.0231756662623</ele>
        <time>2017-11-21T17:28:02.383000Z</time>
      </trkpt>
      <trkpt lat="45.57221174240112" lon="10.360493659973145">
        <ele>660.9195344215706</ele>
        <time>2017-11-21T17:28:02.706000Z</time>
      </trkpt>
      <trkpt lat="45.57227611541748" lon="10.360300540924072">
        <ele>660.8424459597369</ele>
        <time>2017-11-21T17:28:02.946000Z</time>
      </trkpt>
      <trkpt lat="45.572190284729004" lon="10.359828472137451">
        <ele>660.0</ele>
        <time>2017-11-21T17:28:03.493000Z</time>
      </trkpt>
      <trkpt lat="45.572190284729125" lon="10.359824637073737">
        <ele>660.0045779691181</ele>
        <time>2017-11-21T17:28:03.497000Z</time>
      </trkpt>
      <trkpt lat="45.572190284729004" lon="10.359817575663328">
        <ele>660.0130072733479</ele>
        <time>2017-11-21T17:28:03.505000Z</time>
      </trkpt>
      <trkpt lat="45.572190284729004" lon="10.359817491844296">
        <ele>660.0131073292968</ele>
        <time>2017-11-21T17:28:03.505000Z</time>
      </trkpt>
      <trkpt lat="45.572190284729004" lon="10.359463691711426">
        <ele>660.435443489309</ele>
        <time>2017-11-21T17:28:03.902000Z</time>
      </trkpt>
      <trkpt lat="45.57266243733466" lon="10.357468128204346">
        <ele>664.6166245812883</ele>
        <time>2017-11-21T17:28:06.266000Z</time>
      </trkpt>
      <trkpt lat="45.57296276092529" lon="10.35686731338501">
        <ele>663.5947474106625</ele>
        <time>2017-11-21T17:28:07.094000Z</time>
      </trkpt>
      <trkpt lat="45.573413372039795" lon="10.355665683746338">
        <ele>651.7364942691682</ele>
        <time>2017-11-21T17:28:08.624000Z</time>
      </trkpt>
      <trkpt lat="45.573670864105225" lon="10.355150699615479">
        <ele>645.5347378335724</ele>
        <time>2017-11-21T17:28:09.334000Z</time>
      </trkpt>
      <trkpt lat="45.57397127151489" lon="10.354914665222168">
        <ele>634.0684546727211</ele>
        <time>2017-11-21T17:28:09.884000Z</time>
      </trkpt>
      <trkpt lat="45.574164390563965" lon="10.354936122894287">
        <ele>634.1408235623878</ele>
        <time>2017-11-21T17:28:10.195000Z</time>
      </trkpt>
      <trkpt lat="45.57422876358032" lon="10.354979038238525">
        <ele>637.1190733084509</ele>
        <time>2017-11-21T17:28:10.309000Z</time>
      </trkpt>
      <trkpt lat="45.574248827515405" lon="10.355019092878548">
        <ele>642.2605218984847</ele>
        <time>2017-11-21T17:28:10.364000Z</time>
      </trkpt>
      <trkpt lat="45.57425172999501" lon="10.355024887248874">
        <ele>642.3292046138331</ele>
        <time>2017-11-21T17:28:10.372000Z</time>
      </trkpt>
      <trkpt lat="45.57425172999501" lon="10.355024971067905">
        <ele>642.3300125825303</ele>
        <time>2017-11-21T17:28:10.372000Z</time>
      </trkpt>
      <trkpt lat="45.57446479797363" lon="10.355451107025146">
        <ele>647.3780211914356</ele>
        <time>2017-11-21T17:28:10.960000Z</time>
      </trkpt>
      <trkpt lat="45.57455071248114" lon="10.355515480041504">
        <ele>648.7139935258351</ele>
        <time>2017-11-21T17:28:11.116000Z</time>
      </trkpt>
      <trkpt lat="45.574722373858094" lon="10.355451107025146">
        <ele>651.1580154991984</ele>
        <time>2017-11-21T17:28:11.401000Z</time>
      </trkpt>
      <trkpt lat="45.57485103607178" lon="10.355257987976074">
        <ele>653.7279593976044</ele>
        <time>2017-11-21T17:28:11.700000Z</time>
      </trkpt>
      <trkpt lat="45.57534456253052" lon="10.355043411254883">
        <ele>665.4810380401055</ele>
        <time>2017-11-21T17:28:12.527000Z</time>
      </trkpt>
      <trkpt lat="45.575902462005615" lon="10.354249477386475">
        <ele>686.0</ele>
        <time>2017-11-21T17:28:13.789000Z</time>
      </trkpt>
      <trkpt lat="45.575945461168885" lon="10.353434085845947">
        <ele>678.3092731607303</ele>
        <time>2017-11-21T17:28:14.707000Z</time>
      </trkpt>
      <trkpt lat="45.575945461168885" lon="10.35311222076416">
        <ele>674.8174985190967</ele>
        <time>2017-11-21T17:28:15.068000Z</time>
      </trkpt>
      <trkpt lat="45.575902462005615" lon="10.353004932403564">
        <ele>673.6043192645011</ele>
        <time>2017-11-21T17:28:15.207000Z</time>
      </trkpt>
      <trkpt lat="45.57590254582465" lon="10.353004932403564">
        <ele>673.6031441874193</ele>
        <time>2017-11-21T17:28:15.207000Z</time>
      </trkpt>
      <trkpt lat="45.57570934295654" lon="10.352640151977539">
        <ele>660.447644857793</ele>
        <time>2017-11-21T17:28:15.720000Z</time>
      </trkpt>
      <trkpt lat="45.575408935546875" lon="10.35184621810913">
        <ele>652.2209946788098</ele>
        <time>2017-11-21T17:28:16.733000Z</time>
      </trkpt>
      <trkpt lat="45.575387477874756" lon="10.35161018371582">
        <ele>643.3664223922426</ele>
        <time>2017-11-21T17:28:17Z</time>
      </trkpt>
      <trkpt lat="45.57545185089111" lon="10.35135269165039">
        <ele>641.8056595352452</ele>
        <time>2017-11-21T17:28:17.307000Z</time>
      </trkpt>
      <trkpt lat="45.5757737159729" lon="10.350816249847412">
        <ele>630.4391710617629</ele>
        <time>2017-11-21T17:28:18.100000Z</time>
      </trkpt>
      <trkpt lat="45.57600975036621" lon="10.350644588470459">
        <ele>634.244402886823</ele>
        <time>2017-11-21T17:28:18.525000Z</time>
      </trkpt>
      <trkpt lat="45.576138496398926" lon="10.35062313079834">
        <ele>635.1278669769241</ele>
        <time>2017-11-21T17:28:18.733000Z</time>
      </trkpt>
      <trkpt lat="45.57628723040272" lon="10.350648634993656">
        <ele>636.1488908502212</ele>
        <time>2017-11-21T17:28:18.973000Z</time>
      </trkpt>
      <trkpt lat="45.57629247196019" lon="10.35064953379333">
        <ele>636.1848729079439</ele>
        <time>2017-11-21T17:28:18.981000Z</time>
      </trkpt>
      <trkpt lat="45.576889514923096" lon="10.350751876831055">
        <ele>645.9500788336753</ele>
        <time>2017-11-21T17:28:19.945000Z</time>
      </trkpt>
      <trkpt lat="45.577189922332764" lon="10.350580215454102">
        <ele>646.969418618455</ele>
        <time>2017-11-21T17:28:20.464000Z</time>
      </trkpt>
      <trkpt lat="45.57727575302124" lon="10.350322723388672">
        <ele>648.6210418314066</ele>
        <time>2017-11-21T17:28:20.784000Z</time>
      </trkpt>
      <trkpt lat="45.57708263397217" lon="10.349915027618408">
        <ele>653.8052287127076</ele>
        <time>2017-11-21T17:28:21.336000Z</time>
      </trkpt>
      <trkpt lat="45.57736166752875" lon="10.349013805389404">
        <ele>661.845444368259</ele>
        <time>2017-11-21T17:28:22.442000Z</time>
      </trkpt>
      <trkpt lat="45.577425956726074" lon="10.348563194274902">
        <ele>665.8931479433694</ele>
        <time>2017-11-21T17:28:22.958000Z</time>
      </trkpt>
      <trkpt lat="45.5773401260376" lon="10.348069667816162">
        <ele>677.0357782764798</ele>
        <time>2017-11-21T17:28:23.529000Z</time>
      </trkpt>
      <trkpt lat="45.577147006988525" lon="10.34787654876709">
        <ele>680.0</ele>
        <time>2017-11-21T17:28:23.907000Z</time>
      </trkpt>
      <trkpt lat="45.57671785354614" lon="10.347661972045898">
        <ele>681.813379420481</ele>
        <time>2017-11-21T17:28:24.636000Z</time>
      </trkpt>
      <trkpt lat="45.57661056518555" lon="10.347447395324707">
        <ele>671.5495288906851</ele>
        <time>2017-11-21T17:28:24.932000Z</time>
      </trkpt>
      <trkpt lat="45.57676085270941" lon="10.346438884735107">
        <ele>691.428004369994</ele>
        <time>2017-11-21T17:28:26.089000Z</time>
      </trkpt>
      <trkpt lat="45.57686805725098" lon="10.345730781555176">
        <ele>692.7292427568149</ele>
        <time>2017-11-21T17:28:26.902000Z</time>
      </trkpt>
      <trkpt lat="45.57682514190674" lon="10.345580577850342">
        <ele>691.9009631946519</ele>
        <time>2017-11-21T17:28:27.084000Z</time>
      </trkpt>
      <trkpt lat="45.57673931121826" lon="10.345516204833984">
        <ele>691.1938954560004</ele>
        <time>2017-11-21T17:28:27.239000Z</time>
      </trkpt>
      <trkpt lat="45.576438903808594" lon="10.345494747161865">
        <ele>677.0</ele>
        <time>2017-11-21T17:28:27.721000Z</time>
      </trkpt>
      <trkpt lat="45.57628870010376" lon="10.345408916473389">
        <ele>676.6574339233135</ele>
        <time>2017-11-21T17:28:27.980000Z</time>
      </trkpt>
      <trkpt lat="45.575881004333496" lon="10.345001220703125">
        <ele>675.6036289846041</ele>
        <time>2017-11-21T17:28:28.778000Z</time>
      </trkpt>
      <trkpt lat="45.57573080062866" lon="10.344593524932861">
        <ele>669.5874024757476</ele>
        <time>2017-11-21T17:28:29.295000Z</time>
      </trkpt>
      <trkpt lat="45.5755163077265" lon="10.343499183654785">
        <ele>670.5696114020066</ele>
        <time>2017-11-21T17:28:30.570000Z</time>
      </trkpt>
      <trkpt lat="45.575387477874756" lon="10.342984199523926">
        <ele>672.6573141937655</ele>
        <time>2017-11-21T17:28:31.184000Z</time>
      </trkpt>
      <trkpt lat="45.57530173100531" lon="10.341696739196777">
        <ele>678.4937091418875</ele>
        <time>2017-11-21T17:28:32.635000Z</time>
      </trkpt>
      <trkpt lat="45.57525873184204" lon="10.341203212738037">
        <ele>680.8420327131743</ele>
        <time>2017-11-21T17:28:33.193000Z</time>
      </trkpt>
      <trkpt lat="45.57519211742152" lon="10.33982244658858">
        <ele>684.0</ele>
        <time>2017-11-21T17:28:34.746000Z</time>
      </trkpt>
      <trkpt lat="45.575191928073764" lon="10.339818522334099">
        <ele>683.9690421761707</ele>
        <time>2017-11-21T17:28:34.751000Z</time>
      </trkpt>
      <trkpt lat="45.575191928073764" lon="10.339818270877004">
        <ele>683.9670631670615</ele>
        <time>2017-11-21T17:28:34.752000Z</time>
      </trkpt>
      <trkpt lat="45.575172901153564" lon="10.339422225952148">
        <ele>680.8427899003467</ele>
        <time>2017-11-21T17:28:35.197000Z</time>
      </trkpt>
      <trkpt lat="45.57497978210449" lon="10.33839225769043">
        <ele>665.7843095374066</ele>
        <time>2017-11-21T17:28:36.394000Z</time>
      </trkpt>
      <trkpt lat="45.57489403523505" lon="10.337812900543213">
        <ele>662.2453390195147</ele>
        <time>2017-11-21T17:28:37.059000Z</time>
      </trkpt>
      <trkpt lat="45.57480812072754" lon="10.336976051330566">
        <ele>655.0</ele>
        <time>2017-11-21T17:28:38.008000Z</time>
      </trkpt>
      <trkpt lat="45.5747652053833" lon="10.336911678314209">
        <ele>655.1599634774357</ele>
        <time>2017-11-21T17:28:38.108000Z</time>
      </trkpt>
      <trkpt lat="45.57476528920233" lon="10.336611270904541">
        <ele>653.7005216538884</ele>
        <time>2017-11-21T17:28:38.445000Z</time>
      </trkpt>
      <trkpt lat="45.5748724937439" lon="10.336031913757324">
        <ele>654.778835760991</ele>
        <time>2017-11-21T17:28:39.117000Z</time>
      </trkpt>
      <trkpt lat="45.57513006962836" lon="10.335710048675537">
        <ele>664.6585333618956</ele>
        <time>2017-11-21T17:28:39.666000Z</time>
      </trkpt>
      <trkpt lat="45.575129985809326" lon="10.335559844970703">
        <ele>664.9288107592984</ele>
        <time>2017-11-21T17:28:39.835000Z</time>
      </trkpt>
      <trkpt lat="45.575129985809326" lon="10.335280895233154">
        <ele>665.430754337823</ele>
        <time>2017-11-21T17:28:40.148000Z</time>
      </trkpt>
      <trkpt lat="45.57506561279297" lon="10.335023403167725">
        <ele>664.3906196468694</ele>
        <time>2017-11-21T17:28:40.455000Z</time>
      </trkpt>
      <trkpt lat="45.57485103607178" lon="10.334572792053223">
        <ele>649.6507016162642</ele>
        <time>2017-11-21T17:28:41.067000Z</time>
      </trkpt>
      <trkpt lat="45.57482957839966" lon="10.334272384643555">
        <ele>648.5019723964939</ele>
        <time>2017-11-21T17:28:41.406000Z</time>
      </trkpt>
      <trkpt lat="45.574893951416016" lon="10.334057807922363">
        <ele>642.6719198796713</ele>
        <time>2017-11-21T17:28:41.668000Z</time>
      </trkpt>
      <trkpt lat="45.5753231048584" lon="10.333414077758789">
        <ele>652.8444789477021</ele>
        <time>2017-11-21T17:28:42.666000Z</time>
      </trkpt>
      <trkpt lat="45.575329039155974" lon="10.333366531021893">
        <ele>652.3911479305713</ele>
        <time>2017-11-21T17:28:42.720000Z</time>
      </trkpt>
      <trkpt lat="45.575329978019" lon="10.333359008654952">
        <ele>652.3194264579648</ele>
        <time>2017-11-21T17:28:42.729000Z</time>
      </trkpt>
      <trkpt lat="45.57533006183803" lon="10.333358757197857">
        <ele>652.3168122212958</ele>
        <time>2017-11-21T17:28:42.729000Z</time>
      </trkpt>
      <trkpt lat="45.57534456253052" lon="10.333242416381836">
        <ele>648.8742823881563</ele>
        <time>2017-11-21T17:28:42.862000Z</time>
      </trkpt>
      <trkpt lat="45.57525873184204" lon="10.333220958709717">
        <ele>647.7058307111384</ele>
        <time>2017-11-21T17:28:43.002000Z</time>
      </trkpt>
      <trkpt lat="45.57502269744873" lon="10.333564281463623">
        <ele>645.5221798506012</ele>
        <time>2017-11-21T17:28:43.542000Z</time>
      </trkpt>
      <trkpt lat="45.57446479797363" lon="10.334057807922363">
        <ele>623.3894805143017</ele>
        <time>2017-11-21T17:28:44.594000Z</time>
      </trkpt>
      <trkpt lat="45.5743145942688" lon="10.334165096282959">
        <ele>622.5048394737264</ele>
        <time>2017-11-21T17:28:44.863000Z</time>
      </trkpt>
      <trkpt lat="45.573649406433105" lon="10.334422588348389">
        <ele>617.8709222155494</ele>
        <time>2017-11-21T17:28:45.968000Z</time>
      </trkpt>
      <trkpt lat="45.57285555638373" lon="10.334808826446533">
        <ele>609.4489666974719</ele>
        <time>2017-11-21T17:28:47.312000Z</time>
      </trkpt>
      <trkpt lat="45.572662353515625" lon="10.334830284118652">
        <ele>608.9985550833499</ele>
        <time>2017-11-21T17:28:47.623000Z</time>
      </trkpt>
      <trkpt lat="45.57253360748291" lon="10.334787368774414">
        <ele>608.691275736987</ele>
        <time>2017-11-21T17:28:47.835000Z</time>
      </trkpt>
      <trkpt lat="45.57249290103813" lon="10.334665407814402">
        <ele>608.4714426049484</ele>
        <time>2017-11-21T17:28:47.987000Z</time>
      </trkpt>
      <trkpt lat="45.57249052450061" lon="10.334658287465572">
        <ele>608.4586082573843</ele>
        <time>2017-11-21T17:28:47.996000Z</time>
      </trkpt>
      <trkpt lat="45.57249052450061" lon="10.334658036008477">
        <ele>608.4581991349243</ele>
        <time>2017-11-21T17:28:47.997000Z</time>
      </trkpt>
      <trkpt lat="45.57246923446655" lon="10.334594249725342">
        <ele>608.3432247741983</ele>
        <time>2017-11-21T17:28:48.076000Z</time>
      </trkpt>
      <trkpt lat="45.57255506515503" lon="10.334422588348389">
        <ele>608.3760759478656</ele>
        <time>2017-11-21T17:28:48.313000Z</time>
      </trkpt>
      <trkpt lat="45.57289847172797" lon="10.334358215332031">
        <ele>609.7913618872343</ele>
        <time>2017-11-21T17:28:48.868000Z</time>
      </trkpt>
      <trkpt lat="45.57349920272827" lon="10.334165096282959">
        <ele>610.6408373327903</ele>
        <time>2017-11-21T17:28:49.855000Z</time>
      </trkpt>
      <trkpt lat="45.57425022125244" lon="10.333585739135742">
        <ele>620.7952256673226</ele>
        <time>2017-11-21T17:28:51.223000Z</time>
      </trkpt>
      <trkpt lat="45.57457208633423" lon="10.332920551300049">
        <ele>619.0</ele>
        <time>2017-11-21T17:28:52.130000Z</time>
      </trkpt>
      <trkpt lat="45.57461500167847" lon="10.332748889923096">
        <ele>617.4420954582815</ele>
        <time>2017-11-21T17:28:52.335000Z</time>
      </trkpt>
      <trkpt lat="45.57460405298558" lon="10.332584819277256">
        <ele>616.0334738964858</ele>
        <time>2017-11-21T17:28:52.520000Z</time>
      </trkpt>
      <trkpt lat="45.57460351847112" lon="10.332576809450984">
        <ele>615.9647058654601</ele>
        <time>2017-11-21T17:28:52.529000Z</time>
      </trkpt>
      <trkpt lat="45.57460351847112" lon="10.332576557993889">
        <ele>615.962556735309</ele>
        <time>2017-11-21T17:28:52.529000Z</time>
      </trkpt>
      <trkpt lat="45.57459354400635" lon="10.332427024841309">
        <ele>619.6787507375217</ele>
        <time>2017-11-21T17:28:52.698000Z</time>
      </trkpt>
      <trkpt lat="45.574443424120545" lon="10.332169532775879">
        <ele>616.8146859102061</ele>
        <time>2017-11-21T17:28:53.074000Z</time>
      </trkpt>
      <trkpt lat="45.57401418685913" lon="10.33189058303833">
        <ele>600.3902684035414</ele>
        <time>2017-11-21T17:28:53.830000Z</time>
      </trkpt>
      <trkpt lat="45.57379961013794" lon="10.331568717956543">
        <ele>595.5913478079641</ele>
        <time>2017-11-21T17:28:54.329000Z</time>
      </trkpt>
      <trkpt lat="45.57373523712158" lon="10.331203937530518">
        <ele>591.9383589930575</ele>
        <time>2017-11-21T17:28:54.751000Z</time>
      </trkpt>
      <trkpt lat="45.5737566947937" lon="10.330753326416016">
        <ele>579.8859717888763</ele>
        <time>2017-11-21T17:28:55.258000Z</time>
      </trkpt>
      <trkpt lat="45.57397127151489" lon="10.330238342285156">
        <ele>576.8464407860798</ele>
        <time>2017-11-21T17:28:55.931000Z</time>
      </trkpt>
      <trkpt lat="45.57410001754761" lon="10.330066680908203">
        <ele>575.5704675587816</ele>
        <time>2017-11-21T17:28:56.213000Z</time>
      </trkpt>
      <trkpt lat="45.57472421292585" lon="10.329504838619236">
        <ele>590.805894503944</ele>
        <time>2017-11-21T17:28:57.396000Z</time>
      </trkpt>
      <trkpt lat="45.57472933083773" lon="10.32950023189187">
        <ele>590.8624864652992</ele>
        <time>2017-11-21T17:28:57.406000Z</time>
      </trkpt>
      <trkpt lat="45.57472949847579" lon="10.329500064253807">
        <ele>590.8644008455295</ele>
        <time>2017-11-21T17:28:57.406000Z</time>
      </trkpt>
      <trkpt lat="45.57474374771118" lon="10.329487323760986">
        <ele>591.0216657774221</ele>
        <time>2017-11-21T17:28:57.433000Z</time>
      </trkpt>
      <trkpt lat="45.57478666305542" lon="10.329337120056152">
        <ele>592.0840806188143</ele>
        <time>2017-11-21T17:28:57.615000Z</time>
      </trkpt>
      <trkpt lat="45.57478674687445" lon="10.329337120056152">
        <ele>592.0848647874705</ele>
        <time>2017-11-21T17:28:57.615000Z</time>
      </trkpt>
      <trkpt lat="45.57470083236694" lon="10.329186916351318">
        <ele>593.3551330146204</ele>
        <time>2017-11-21T17:28:57.833000Z</time>
      </trkpt>
      <trkpt lat="45.57433605194092" lon="10.328822135925293">
        <ele>603.8541577425591</ele>
        <time>2017-11-21T17:28:58.547000Z</time>
      </trkpt>
      <trkpt lat="45.574164390563965" lon="10.328543186187744">
        <ele>582.4898902501321</ele>
        <time>2017-11-21T17:28:58.964000Z</time>
      </trkpt>
      <trkpt lat="45.57394981384277" lon="10.327985286712646">
        <ele>572.8554629342582</ele>
        <time>2017-11-21T17:28:59.678000Z</time>
      </trkpt>
      <trkpt lat="45.573928356170654" lon="10.327255725860596">
        <ele>558.3333333333334</ele>
        <time>2017-11-21T17:29:00.497000Z</time>
      </trkpt>
      <trkpt lat="45.57403564453125" lon="10.326762199401855">
        <ele>559.4284522738793</ele>
        <time>2017-11-21T17:29:01.077000Z</time>
      </trkpt>
      <trkpt lat="45.574207389727235" lon="10.326375961303711">
        <ele>566.7314508016908</ele>
        <time>2017-11-21T17:29:01.590000Z</time>
      </trkpt>
      <trkpt lat="45.574426373594164" lon="10.325922139589025">
        <ele>567.8995092535035</ele>
        <time>2017-11-21T17:29:02.209000Z</time>
      </trkpt>
      <trkpt lat="45.574429677799344" lon="10.325915291905403">
        <ele>567.9022732090857</ele>
        <time>2017-11-21T17:29:02.218000Z</time>
      </trkpt>
      <trkpt lat="45.574429761618376" lon="10.325915208086371">
        <ele>567.9023217835132</ele>
        <time>2017-11-21T17:29:02.218000Z</time>
      </trkpt>
      <trkpt lat="45.5745077971369" lon="10.325753688812256">
        <ele>565.300876426716</ele>
        <time>2017-11-21T17:29:02.438000Z</time>
      </trkpt>
      <trkpt lat="45.57450771331787" lon="10.324831008911133">
        <ele>564.2147103102665</ele>
        <time>2017-11-21T17:29:03.473000Z</time>
      </trkpt>
      <trkpt lat="45.57459354400635" lon="10.324466228485107">
        <ele>563.0665413358282</ele>
        <time>2017-11-21T17:29:03.905000Z</time>
      </trkpt>
      <trkpt lat="45.57455062866211" lon="10.324294567108154">
        <ele>562.5227021605293</ele>
        <time>2017-11-21T17:29:04.110000Z</time>
      </trkpt>
      <trkpt lat="45.573134422302246" lon="10.322985649108887">
        <ele>549.0</ele>
        <time>2017-11-21T17:29:06.814000Z</time>
      </trkpt>
      <trkpt lat="45.5727481842041" lon="10.32238483428955">
        <ele>560.9274537977152</ele>
        <time>2017-11-21T17:29:07.729000Z</time>
      </trkpt>
      <trkpt lat="45.57213913327667" lon="10.321329018097924">
        <ele>527.0</ele>
        <time>2017-11-21T17:29:09.264000Z</time>
      </trkpt>
      <trkpt lat="45.57213571853936" lon="10.321323098614812">
        <ele>526.9876997799405</ele>
        <time>2017-11-21T17:29:09.273000Z</time>
      </trkpt>
      <trkpt lat="45.572135634720325" lon="10.32132301479578">
        <ele>526.9874653984602</ele>
        <time>2017-11-21T17:29:09.273000Z</time>
      </trkpt>
      <trkpt lat="45.57210445404053" lon="10.321269035339355">
        <ele>526.8752392774342</ele>
        <time>2017-11-21T17:29:09.352000Z</time>
      </trkpt>
      <trkpt lat="45.57204008102417" lon="10.321054458618164">
        <ele>526.500880364577</ele>
        <time>2017-11-21T17:29:09.614000Z</time>
      </trkpt>
      <trkpt lat="45.5720401648432" lon="10.321054458618164">
        <ele>526.5006883527543</ele>
        <time>2017-11-21T17:29:09.614000Z</time>
      </trkpt>
      <trkpt lat="45.57206153869629" lon="10.320754051208496">
        <ele>525.3498124902089</ele>
        <time>2017-11-21T17:29:09.953000Z</time>
      </trkpt>
      <trkpt lat="45.572168827056885" lon="10.320131778717041">
        <ele>524.3221283346558</ele>
        <time>2017-11-21T17:29:10.672000Z</time>
      </trkpt>
      <trkpt lat="45.572147369384766" lon="10.319552421569824">
        <ele>519.5328899632601</ele>
        <time>2017-11-21T17:29:11.323000Z</time>
      </trkpt>
      <trkpt lat="45.57223320007324" lon="10.318994522094727">
        <ele>518.7661211406175</ele>
        <time>2017-11-21T17:29:11.964000Z</time>
      </trkpt>
      <trkpt lat="45.571932876482606" lon="10.318436622619629">
        <ele>517.0</ele>
        <time>2017-11-21T17:29:12.754000Z</time>
      </trkpt>
      <trkpt lat="45.571889877319336" lon="10.3181791305542">
        <ele>515.9254822034395</ele>
        <time>2017-11-21T17:29:13.051000Z</time>
      </trkpt>
      <trkpt lat="45.571932792663574" lon="10.317707061767578">
        <ele>515.7914793213087</ele>
        <time>2017-11-21T17:29:13.585000Z</time>
      </trkpt>
      <trkpt lat="45.57192038103185" lon="10.316618917029311">
        <ele>514.8184603365697</ele>
        <time>2017-11-21T17:29:14.806000Z</time>
      </trkpt>
      <trkpt lat="45.57192030362785" lon="10.31661213375628">
        <ele>514.7748230027969</ele>
        <time>2017-11-21T17:29:14.814000Z</time>
      </trkpt>
      <trkpt lat="45.57192030362785" lon="10.316611882299185">
        <ele>514.7732055742295</ele>
        <time>2017-11-21T17:29:14.814000Z</time>
      </trkpt>
      <trkpt lat="45.571911334991455" lon="10.315818786621094">
        <ele>513.3378361184897</ele>
        <time>2017-11-21T17:29:15.704000Z</time>
      </trkpt>
      <trkpt lat="45.571718299761415" lon="10.315346717834473">
        <ele>509.82126226711335</ele>
        <time>2017-11-21T17:29:16.318000Z</time>
      </trkpt>
      <trkpt lat="45.57158946990967" lon="10.315046310424805">
        <ele>489.5972476432899</ele>
        <time>2017-11-21T17:29:16.713000Z</time>
      </trkpt>
      <trkpt lat="45.57154655456543" lon="10.314702987670898">
        <ele>487.5486541686096</ele>
        <time>2017-11-21T17:29:17.104000Z</time>
      </trkpt>
      <trkpt lat="45.571632385253906" lon="10.313801765441895">
        <ele>482.20607243690375</ele>
        <time>2017-11-21T17:29:18.125000Z</time>
      </trkpt>
      <trkpt lat="45.57161092758179" lon="10.313372611999512">
        <ele>479.6787861539765</ele>
        <time>2017-11-21T17:29:18.608000Z</time>
      </trkpt>
      <trkpt lat="45.57152518071234" lon="10.312643051147461">
        <ele>477.6184080605039</ele>
        <time>2017-11-21T17:29:19.438000Z</time>
      </trkpt>
      <trkpt lat="45.57133206166327" lon="10.311741828918457">
        <ele>484.75398267088434</ele>
        <time>2017-11-21T17:29:20.496000Z</time>
      </trkpt>
      <trkpt lat="45.5711669110869" lon="10.311521655254012">
        <ele>492.2840815868676</ele>
        <time>2017-11-21T17:29:20.858000Z</time>
      </trkpt>
      <trkpt lat="45.57116199284792" lon="10.311515098437667">
        <ele>492.2457801271703</ele>
        <time>2017-11-21T17:29:20.869000Z</time>
      </trkpt>
      <trkpt lat="45.571161825209856" lon="10.311514930799603">
        <ele>492.2446150746444</ele>
        <time>2017-11-21T17:29:20.869000Z</time>
      </trkpt>
      <trkpt lat="45.571138858795166" lon="10.311484336853027">
        <ele>492.0658262912852</ele>
        <time>2017-11-21T17:29:20.919000Z</time>
      </trkpt>
      <trkpt lat="45.570988738909364" lon="10.31141996383667">
        <ele>491.1734503443551</ele>
        <time>2017-11-21T17:29:21.170000Z</time>
      </trkpt>
      <trkpt lat="45.57053804397583" lon="10.311334133148193">
        <ele>481.2514085016408</ele>
        <time>2017-11-21T17:29:21.899000Z</time>
      </trkpt>
      <trkpt lat="45.57036638259888" lon="10.311226844787598">
        <ele>480.1846137566303</ele>
        <time>2017-11-21T17:29:22.199000Z</time>
      </trkpt>
      <trkpt lat="45.57023763656616" lon="10.31092643737793">
        <ele>478.78074959196306</ele>
        <time>2017-11-21T17:29:22.594000Z</time>
      </trkpt>
      <trkpt lat="45.570173263549805" lon="10.310196876525879">
        <ele>480.3130716926965</ele>
        <time>2017-11-21T17:29:23.419000Z</time>
      </trkpt>
      <trkpt lat="45.57000168599188" lon="10.30991792678833">
        <ele>481.5213804911902</ele>
        <time>2017-11-21T17:29:23.836000Z</time>
      </trkpt>
      <trkpt lat="45.569443702697754" lon="10.309360027313232">
        <ele>475.11372427677014</ele>
        <time>2017-11-21T17:29:24.928000Z</time>
      </trkpt>
      <trkpt lat="45.56927893130249" lon="10.309305049923507">
        <ele>474.334057597448</ele>
        <time>2017-11-21T17:29:25.199000Z</time>
      </trkpt>
      <trkpt lat="45.56927187368274" lon="10.309302695095539">
        <ele>474.30066229792783</ele>
        <time>2017-11-21T17:29:25.211000Z</time>
      </trkpt>
      <trkpt lat="45.569271789863706" lon="10.309302695095539">
        <ele>474.30027607809956</ele>
        <time>2017-11-21T17:29:25.211000Z</time>
      </trkpt>
      <trkpt lat="45.56925058364868" lon="10.309295654296875">
        <ele>474.19995782802107</ele>
        <time>2017-11-21T17:29:25.246000Z</time>
      </trkpt>
      <trkpt lat="45.56905754841864" lon="10.309317111968994">
        <ele>470.9744712254275</ele>
        <time>2017-11-21T17:29:25.556000Z</time>
      </trkpt>
      <trkpt lat="45.56882151402533" lon="10.309553146362305">
        <ele>469.6468598441715</ele>
        <time>2017-11-21T17:29:26.018000Z</time>
      </trkpt>
      <trkpt lat="45.56862831115723" lon="10.3096604347229">
        <ele>468.6917197124162</ele>
        <time>2017-11-21T17:29:26.350000Z</time>
      </trkpt>
      <trkpt lat="45.568478191271424" lon="10.3096604347229">
        <ele>468.0</ele>
        <time>2017-11-21T17:29:26.591000Z</time>
      </trkpt>
      <trkpt lat="45.567984664812684" lon="10.309574604034424">
        <ele>468.365090028376</ele>
        <time>2017-11-21T17:29:27.388000Z</time>
      </trkpt>
      <trkpt lat="45.56729793548584" lon="10.309295654296875">
        <ele>466.59868123581447</ele>
        <time>2017-11-21T17:29:28.533000Z</time>
      </trkpt>
      <trkpt lat="45.56631096638739" lon="10.309295654296875">
        <ele>466.0</ele>
        <time>2017-11-21T17:29:30.115000Z</time>
      </trkpt>
      <trkpt lat="45.565967643633485" lon="10.30918836593628">
        <ele>466.8001267430641</ele>
        <time>2017-11-21T17:29:30.678000Z</time>
      </trkpt>
      <trkpt lat="45.565645694732666" lon="10.309102535247803">
        <ele>477.2115050800127</ele>
        <time>2017-11-21T17:29:31.203000Z</time>
      </trkpt>
      <trkpt lat="45.56521654129028" lon="10.309102535247803">
        <ele>479.93448826849266</ele>
        <time>2017-11-21T17:29:31.891000Z</time>
      </trkpt>
      <trkpt lat="45.56510592149363" lon="10.309075549049181">
        <ele>480.6465354399224</ele>
        <time>2017-11-21T17:29:32.071000Z</time>
      </trkpt>
      <trkpt lat="45.56509869173169" lon="10.309073785319924">
        <ele>480.6930726005467</ele>
        <time>2017-11-21T17:29:32.083000Z</time>
      </trkpt>
      <trkpt lat="45.56509860791266" lon="10.309073785319924">
        <ele>480.6936044332008</ele>
        <time>2017-11-21T17:29:32.083000Z</time>
      </trkpt>
      <trkpt lat="45.56450852192938" lon="10.30893087387085">
        <ele>482.15781149083045</ele>
        <time>2017-11-21T17:29:33.042000Z</time>
      </trkpt>
      <trkpt lat="45.56437977589667" lon="10.30890941619873">
        <ele>482.4205794697996</ele>
        <time>2017-11-21T17:29:33.250000Z</time>
      </trkpt>
      <trkpt lat="45.56414374150336" lon="10.308845043182373">
        <ele>481.907718619123</ele>
        <time>2017-11-21T17:29:33.635000Z</time>
      </trkpt>
      <trkpt lat="45.563650131225586" lon="10.308351516723633">
        <ele>481.41498729119445</ele>
        <time>2017-11-21T17:29:34.601000Z</time>
      </trkpt>
      <trkpt lat="45.56330680847168" lon="10.30817985534668">
        <ele>481.78418805668997</ele>
        <time>2017-11-21T17:29:35.184000Z</time>
      </trkpt>
      <trkpt lat="45.562920570373535" lon="10.30792236328125">
        <ele>480.92415238830205</ele>
        <time>2017-11-21T17:29:35.867000Z</time>
      </trkpt>
      <trkpt lat="45.562448501586914" lon="10.307879447937012">
        <ele>477.96971686870444</ele>
        <time>2017-11-21T17:29:36.625000Z</time>
      </trkpt>
      <trkpt lat="45.56197643280029" lon="10.307750701904297">
        <ele>477.0</ele>
        <time>2017-11-21T17:29:37.395000Z</time>
      </trkpt>
      <trkpt lat="45.561697483062744" lon="10.307643413543701">
        <ele>476.606345379312</ele>
        <time>2017-11-21T17:29:37.858000Z</time>
      </trkpt>
      <trkpt lat="45.561397075653076" lon="10.30740737915039">
        <ele>480.47247296943084</ele>
        <time>2017-11-21T17:29:38.408000Z</time>
      </trkpt>
      <trkpt lat="45.56139715947211" lon="10.30740737915039">
        <ele>480.47235875250277</ele>
        <time>2017-11-21T17:29:38.408000Z</time>
      </trkpt>
      <trkpt lat="45.56077480316162" lon="10.307128429412842">
        <ele>475.58351878700256</ele>
        <time>2017-11-21T17:29:39.454000Z</time>
      </trkpt>
      <trkpt lat="45.560302734375" lon="10.307106971740723">
        <ele>472.88188903369195</ele>
        <time>2017-11-21T17:29:40.211000Z</time>
      </trkpt>
      <trkpt lat="45.5598521232605" lon="10.306785106658936">
        <ele>466.0</ele>
        <time>2017-11-21T17:29:41.019000Z</time>
      </trkpt>
      <trkpt lat="45.55899381637573" lon="10.306463241577148">
        <ele>466.68501825355696</ele>
        <time>2017-11-21T17:29:42.442000Z</time>
      </trkpt>
      <trkpt lat="45.558897240369056" lon="10.306379731262016">
        <ele>466.5601299909001</ele>
        <time>2017-11-21T17:29:42.623000Z</time>
      </trkpt>
      <trkpt lat="45.55889097042382" lon="10.306374309584498">
        <ele>466.55202195080363</ele>
        <time>2017-11-21T17:29:42.635000Z</time>
      </trkpt>
      <trkpt lat="45.558890886604786" lon="10.306374309584498">
        <ele>466.55192922956513</ele>
        <time>2017-11-21T17:29:42.635000Z</time>
      </trkpt>
      <trkpt lat="45.55852174758911" lon="10.306055545806885">
        <ele>466.07474585593883</ele>
        <time>2017-11-21T17:29:43.327000Z</time>
      </trkpt>
      <trkpt lat="45.558199882507324" lon="10.305969715118408">
        <ele>459.77534451091407</ele>
        <time>2017-11-21T17:29:43.852000Z</time>
      </trkpt>
      <trkpt lat="45.5578351020813" lon="10.305583477020264">
        <ele>466.92106679266016</ele>
        <time>2017-11-21T17:29:44.580000Z</time>
      </trkpt>
      <trkpt lat="45.55762060917914" lon="10.305497646331787">
        <ele>467.4830927598128</ele>
        <time>2017-11-21T17:29:44.937000Z</time>
      </trkpt>
      <trkpt lat="45.556654930114746" lon="10.305325984954834">
        <ele>455.3283944473631</ele>
        <time>2017-11-21T17:29:46.497000Z</time>
      </trkpt>
      <trkpt lat="45.55629023350775" lon="10.305132865905762">
        <ele>453.80100260499466</ele>
        <time>2017-11-21T17:29:47.121000Z</time>
      </trkpt>
      <trkpt lat="45.555946826934814" lon="10.304853916168213">
        <ele>463.6770625678552</ele>
        <time>2017-11-21T17:29:47.754000Z</time>
      </trkpt>
      <trkpt lat="45.55562496185303" lon="10.304768085479736">
        <ele>461.1240611177113</ele>
        <time>2017-11-21T17:29:48.279000Z</time>
      </trkpt>
      <trkpt lat="45.555431842803955" lon="10.304811000823975">
        <ele>461.788811992767</ele>
        <time>2017-11-21T17:29:48.592000Z</time>
      </trkpt>
      <trkpt lat="45.55543192662299" lon="10.304811000823975">
        <ele>461.7890970823651</ele>
        <time>2017-11-21T17:29:48.592000Z</time>
      </trkpt>
      <trkpt lat="45.555174350738525" lon="10.304832458496094">
        <ele>462.6666666666667</ele>
        <time>2017-11-21T17:29:49.006000Z</time>
      </trkpt>
      <trkpt lat="45.554916858673096" lon="10.304725170135498">
        <ele>460.6718766528276</ele>
        <time>2017-11-21T17:29:49.436000Z</time>
      </trkpt>
      <trkpt lat="45.55455207824707" lon="10.30442476272583">
        <ele>459.11017187024936</ele>
        <time>2017-11-21T17:29:50.111000Z</time>
      </trkpt>
      <trkpt lat="45.55429458618164" lon="10.304102897644043">
        <ele>462.5077157961326</ele>
        <time>2017-11-21T17:29:50.660000Z</time>
      </trkpt>
      <trkpt lat="45.554233884689474" lon="10.30407243434478">
        <ele>462.10106057282</ele>
        <time>2017-11-21T17:29:50.763000Z</time>
      </trkpt>
      <trkpt lat="45.55422677658498" lon="10.304068867117167">
        <ele>462.05344152175286</ele>
        <time>2017-11-21T17:29:50.775000Z</time>
      </trkpt>
      <trkpt lat="45.55422660894692" lon="10.304068783298135">
        <ele>462.0523189257048</ele>
        <time>2017-11-21T17:29:50.775000Z</time>
      </trkpt>
      <trkpt lat="45.554165840148926" lon="10.304038524627686">
        <ele>452.97889468002154</ele>
        <time>2017-11-21T17:29:50.878000Z</time>
      </trkpt>
      <trkpt lat="45.553736770525575" lon="10.304231643676758">
        <ele>449.1355215255364</ele>
        <time>2017-11-21T17:29:51.599000Z</time>
      </trkpt>
      <trkpt lat="45.553650856018066" lon="10.304210186004639">
        <ele>448.9077409288836</ele>
        <time>2017-11-21T17:29:51.739000Z</time>
      </trkpt>
      <trkpt lat="45.55356502532959" lon="10.304102897644043">
        <ele>449.6098446961517</ele>
        <time>2017-11-21T17:29:51.922000Z</time>
      </trkpt>
      <trkpt lat="45.553672313690186" lon="10.30367374420166">
        <ele>448.7765103897597</ele>
        <time>2017-11-21T17:29:52.434000Z</time>
      </trkpt>
      <trkpt lat="45.55382251739502" lon="10.303072929382324">
        <ele>446.6098451264623</ele>
        <time>2017-11-21T17:29:53.150000Z</time>
      </trkpt>
      <trkpt lat="45.553825438078626" lon="10.302954488201298">
        <ele>446.4769496695174</ele>
        <time>2017-11-21T17:29:53.283000Z</time>
      </trkpt>
      <trkpt lat="45.553825702518225" lon="10.30294376425445">
        <ele>446.4649169984734</ele>
        <time>2017-11-21T17:29:53.295000Z</time>
      </trkpt>
      <trkpt lat="45.553825702518225" lon="10.302943680435419">
        <ele>446.4648230086321</ele>
        <time>2017-11-21T17:29:53.295000Z</time>
      </trkpt>
      <trkpt lat="45.553825702518225" lon="10.302943512797356">
        <ele>446.4646350289493</ele>
        <time>2017-11-21T17:29:53.295000Z</time>
      </trkpt>
      <trkpt lat="45.55384397506714" lon="10.30219316482544">
        <ele>449.6227291453383</ele>
        <time>2017-11-21T17:29:54.138000Z</time>
      </trkpt>
      <trkpt lat="45.55383812027701" lon="10.302166937748773">
        <ele>449.55372403156053</ele>
        <time>2017-11-21T17:29:54.169000Z</time>
      </trkpt>
      <trkpt lat="45.55383576080203" lon="10.302156368270516">
        <ele>449.5259150559156</ele>
        <time>2017-11-21T17:29:54.181000Z</time>
      </trkpt>
      <trkpt lat="45.55383576080203" lon="10.302156200632453">
        <ele>449.52549482716125</ele>
        <time>2017-11-21T17:29:54.181000Z</time>
      </trkpt>
      <trkpt lat="45.5538010597229" lon="10.302000045776367">
        <ele>449.1148127166637</ele>
        <time>2017-11-21T17:29:54.365000Z</time>
      </trkpt>
      <trkpt lat="45.553693771362305" lon="10.301828384399414">
        <ele>448.5380222020103</ele>
        <time>2017-11-21T17:29:54.623000Z</time>
      </trkpt>
      <trkpt lat="45.55332907475531" lon="10.301592350006104">
        <ele>444.43796905272035</ele>
        <time>2017-11-21T17:29:55.265000Z</time>
      </trkpt>
      <trkpt lat="45.55255651473999" lon="10.301270484924316">
        <ele>436.2855899169172</ele>
        <time>2017-11-21T17:29:56.555000Z</time>
      </trkpt>
      <trkpt lat="45.55214881896973" lon="10.300970077514648">
        <ele>424.6382129461131</ele>
        <time>2017-11-21T17:29:57.290000Z</time>
      </trkpt>
      <trkpt lat="45.55148363113403" lon="10.300025939941406">
        <ele>415.0536855584731</ele>
        <time>2017-11-21T17:29:58.794000Z</time>
      </trkpt>
      <trkpt lat="45.551226222887635" lon="10.299232006072998">
        <ele>413.57987654183995</ele>
        <time>2017-11-21T17:29:59.776000Z</time>
      </trkpt>
      <trkpt lat="45.551209849191125" lon="10.29919225100045">
        <ele>413.3495015682517</ele>
        <time>2017-11-21T17:29:59.828000Z</time>
      </trkpt>
      <trkpt lat="45.55120585486293" lon="10.299182552844286">
        <ele>413.293302121072</ele>
        <time>2017-11-21T17:29:59.841000Z</time>
      </trkpt>
      <trkpt lat="45.5512057710439" lon="10.299182469025254">
        <ele>413.29257223028344</ele>
        <time>2017-11-21T17:29:59.841000Z</time>
      </trkpt>
      <trkpt lat="45.55107593536377" lon="10.298867225646973">
        <ele>413.1324518578469</ele>
        <time>2017-11-21T17:30:00.252000Z</time>
      </trkpt>
      <trkpt lat="45.55086144246161" lon="10.298523902893066">
        <ele>410.83426784725185</ele>
        <time>2017-11-21T17:30:00.769000Z</time>
      </trkpt>
      <trkpt lat="45.55079706944525" lon="10.298459529876709">
        <ele>400.9403770470993</ele>
        <time>2017-11-21T17:30:00.895000Z</time>
      </trkpt>
      <trkpt lat="45.55056103505194" lon="10.298266410827637">
        <ele>402.0</ele>
        <time>2017-11-21T17:30:01.331000Z</time>
      </trkpt>
      <trkpt lat="45.549960136413574" lon="10.297901630401611">
        <ele>392.4964760606492</ele>
        <time>2017-11-21T17:30:02.378000Z</time>
      </trkpt>
      <trkpt lat="45.549230659380555" lon="10.297729969024658">
        <ele>387.0197867327167</ele>
        <time>2017-11-21T17:30:03.563000Z</time>
      </trkpt>
      <trkpt lat="45.548951709643006" lon="10.2976655960083">
        <ele>382.69375814699805</ele>
        <time>2017-11-21T17:30:04.016000Z</time>
      </trkpt>
      <trkpt lat="45.54880142211914" lon="10.297729969024658">
        <ele>381.2170840445046</ele>
        <time>2017-11-21T17:30:04.268000Z</time>
      </trkpt>
      <trkpt lat="45.54832943715155" lon="10.298137664794922">
        <ele>372.6922322328207</ele>
        <time>2017-11-21T17:30:05.152000Z</time>
      </trkpt>
      <trkpt lat="45.547864918754925" lon="10.298412104250238">
        <ele>365.58516079645125</ele>
        <time>2017-11-21T17:30:05.958000Z</time>
      </trkpt>
      <trkpt lat="45.5478572845459" lon="10.29841661453247">
        <ele>365.54488374118097</ele>
        <time>2017-11-21T17:30:05.971000Z</time>
      </trkpt>
      <trkpt lat="45.547192096710205" lon="10.298888683319092">
        <ele>360.9236167899237</ele>
        <time>2017-11-21T17:30:07.162000Z</time>
      </trkpt>
      <trkpt lat="45.54584034718573" lon="10.298910140991211">
        <ele>351.0</ele>
        <time>2017-11-21T17:30:09.329000Z</time>
      </trkpt>
      <trkpt lat="45.54568131909332" lon="10.298910140991175">
        <ele>339.6317307235353</ele>
        <time>2017-11-21T17:30:09.584000Z</time>
      </trkpt>
      <trkpt lat="45.54567304439843" lon="10.298910140991211">
        <ele>339.66240324936797</ele>
        <time>2017-11-21T17:30:09.597000Z</time>
      </trkpt>
      <trkpt lat="45.54556131362915" lon="10.298910140991211">
        <ele>340.0765653365133</ele>
        <time>2017-11-21T17:30:09.776000Z</time>
      </trkpt>
      <trkpt lat="45.54549694061279" lon="10.298974514007568">
        <ele>340.3678814228819</ele>
        <time>2017-11-21T17:30:09.902000Z</time>
      </trkpt>
      <trkpt lat="45.54551839828491" lon="10.299081802368164">
        <ele>340.6575387085922</ele>
        <time>2017-11-21T17:30:10.027000Z</time>
      </trkpt>
      <trkpt lat="45.545947551727295" lon="10.299317836761475">
        <ele>347.6955826012681</ele>
        <time>2017-11-21T17:30:10.764000Z</time>
      </trkpt>
      <trkpt lat="45.54594763554633" lon="10.299317836761475">
        <ele>347.6958933005082</ele>
        <time>2017-11-21T17:30:10.764000Z</time>
      </trkpt>
      <trkpt lat="45.54607410845921" lon="10.299388143367286">
        <ele>348.19897671044987</ele>
        <time>2017-11-21T17:30:10.982000Z</time>
      </trkpt>
      <trkpt lat="45.5460818298161" lon="10.299392435699701">
        <ele>348.22969070053915</ele>
        <time>2017-11-21T17:30:10.995000Z</time>
      </trkpt>
      <trkpt lat="45.546081913635135" lon="10.299392435699701">
        <ele>348.2300013997794</ele>
        <time>2017-11-21T17:30:10.995000Z</time>
      </trkpt>
      <trkpt lat="45.54652690887451" lon="10.299639701843262">
        <ele>350.0</ele>
        <time>2017-11-21T17:30:11.761000Z</time>
      </trkpt>
      <trkpt lat="45.54659128189087" lon="10.299746990203857">
        <ele>349.38284193060554</ele>
        <time>2017-11-21T17:30:11.920000Z</time>
      </trkpt>
      <trkpt lat="45.54648399353027" lon="10.299811363220215">
        <ele>348.6569407218194</ele>
        <time>2017-11-21T17:30:12.107000Z</time>
      </trkpt>
      <trkpt lat="45.5462908744812" lon="10.29966115951538">
        <ele>347.2852322866567</ele>
        <time>2017-11-21T17:30:12.460000Z</time>
      </trkpt>
      <trkpt lat="45.54611921310425" lon="10.299618244171143">
        <ele>346.19819168285636</ele>
        <time>2017-11-21T17:30:12.739000Z</time>
      </trkpt>
      <trkpt lat="45.54523944854736" lon="10.29966115951538">
        <ele>336.70738175080646</ele>
        <time>2017-11-21T17:30:14.150000Z</time>
      </trkpt>
      <trkpt lat="45.54506239016436" lon="10.299629782075703">
        <ele>335.1370603011171</ele>
        <time>2017-11-21T17:30:14.436000Z</time>
      </trkpt>
      <trkpt lat="45.54505404084921" lon="10.299628302454948">
        <ele>335.0630106694807</ele>
        <time>2017-11-21T17:30:14.449000Z</time>
      </trkpt>
      <trkpt lat="45.54505395703018" lon="10.299628302454948">
        <ele>335.0622729431216</ele>
        <time>2017-11-21T17:30:14.449000Z</time>
      </trkpt>
      <trkpt lat="45.54487466812134" lon="10.299596786499023">
        <ele>329.4723631625441</ele>
        <time>2017-11-21T17:30:14.739000Z</time>
      </trkpt>
      <trkpt lat="45.54450988769531" lon="10.299382209777832">
        <ele>326.0</ele>
        <time>2017-11-21T17:30:15.371000Z</time>
      </trkpt>
      <trkpt lat="45.54435968399048" lon="10.299103260040283">
        <ele>322.1242060834772</ele>
        <time>2017-11-21T17:30:15.766000Z</time>
      </trkpt>
      <trkpt lat="45.54435976780951" lon="10.299103260040283">
        <ele>322.12402157557926</ele>
        <time>2017-11-21T17:30:15.766000Z</time>
      </trkpt>
      <trkpt lat="45.54429531097412" lon="10.299210548400879">
        <ele>325.2394326038605</ele>
        <time>2017-11-21T17:30:15.925000Z</time>
      </trkpt>
      <trkpt lat="45.54435968399048" lon="10.299382209777832">
        <ele>324.93923826158294</ele>
        <time>2017-11-21T17:30:16.144000Z</time>
      </trkpt>
      <trkpt lat="45.544724464416504" lon="10.299897193908691">
        <ele>323.8100347392504</ele>
        <time>2017-11-21T17:30:16.966000Z</time>
      </trkpt>
      <trkpt lat="45.54473597870433" lon="10.299905072104423">
        <ele>323.7819289940874</ele>
        <time>2017-11-21T17:30:16.986000Z</time>
      </trkpt>
      <trkpt lat="45.544743575155735" lon="10.299910269677639">
        <ele>323.763386471924</ele>
        <time>2017-11-21T17:30:16.999000Z</time>
      </trkpt>
      <trkpt lat="45.54506778717041" lon="10.300133228302002">
        <ele>318.9712485071456</ele>
        <time>2017-11-21T17:30:17.576000Z</time>
      </trkpt>
      <trkpt lat="45.54603338241577" lon="10.30041217803955">
        <ele>330.11074127088114</ele>
        <time>2017-11-21T17:30:19.155000Z</time>
      </trkpt>
      <trkpt lat="45.546183586120605" lon="10.300562381744385">
        <ele>329.81390725761463</ele>
        <time>2017-11-21T17:30:19.449000Z</time>
      </trkpt>
      <trkpt lat="45.546441078186035" lon="10.300991535186768">
        <ele>317.3860562531385</ele>
        <time>2017-11-21T17:30:20.083000Z</time>
      </trkpt>
      <trkpt lat="45.546462535858154" lon="10.301120281219482">
        <ele>316.4271812671996</ele>
        <time>2017-11-21T17:30:20.232000Z</time>
      </trkpt>
      <trkpt lat="45.546462619677186" lon="10.301120281219482">
        <ele>316.4263140957335</ele>
        <time>2017-11-21T17:30:20.232000Z</time>
      </trkpt>
      <trkpt lat="45.5463981628418" lon="10.30116319656372">
        <ele>315.6905288264912</ele>
        <time>2017-11-21T17:30:20.346000Z</time>
      </trkpt>
      <trkpt lat="45.54607629776001" lon="10.30066967010498">
        <ele>319.137639729486</ele>
        <time>2017-11-21T17:30:21.103000Z</time>
      </trkpt>
      <trkpt lat="45.54564714431763" lon="10.3006911277771">
        <ele>309.02833390760543</ele>
        <time>2017-11-21T17:30:21.791000Z</time>
      </trkpt>
      <trkpt lat="45.5453565605982" lon="10.30085947214783">
        <ele>299.8434180673624</ele>
        <time>2017-11-21T17:30:22.294000Z</time>
      </trkpt>
      <trkpt lat="45.54534866474569" lon="10.300864046439528">
        <ele>299.8074432252615</ele>
        <time>2017-11-21T17:30:22.308000Z</time>
      </trkpt>
      <trkpt lat="45.545348497107625" lon="10.300864046439528">
        <ele>299.80673547334897</ele>
        <time>2017-11-21T17:30:22.308000Z</time>
      </trkpt>
      <trkpt lat="45.54523944854736" lon="10.30092716217041">
        <ele>299.3099573978841</ele>
        <time>2017-11-21T17:30:22.497000Z</time>
      </trkpt>
      <trkpt lat="45.544960498809814" lon="10.300905704498291">
        <ele>294.1305504336902</ele>
        <time>2017-11-21T17:30:22.945000Z</time>
      </trkpt>
      <trkpt lat="45.54435968399048" lon="10.300712585449219">
        <ele>301.86382261882227</ele>
        <time>2017-11-21T17:30:23.932000Z</time>
      </trkpt>
      <trkpt lat="45.54358720779419" lon="10.300219058990479">
        <ele>281.4188711819038</ele>
        <time>2017-11-21T17:30:25.289000Z</time>
      </trkpt>
      <trkpt lat="45.54358729161322" lon="10.300219058990479">
        <ele>281.41763858571807</ele>
        <time>2017-11-21T17:30:25.289000Z</time>
      </trkpt>
      <trkpt lat="45.54305084981024" lon="10.300047397613525">
        <ele>266.0</ele>
        <time>2017-11-21T17:30:26.170000Z</time>
      </trkpt>
      <trkpt lat="45.542664527893066" lon="10.299875736236572">
        <ele>268.352382399898</ele>
        <time>2017-11-21T17:30:26.819000Z</time>
      </trkpt>
      <trkpt lat="45.54262161254883" lon="10.2996826171875">
        <ele>268.24215588977097</ele>
        <time>2017-11-21T17:30:27.046000Z</time>
      </trkpt>
      <trkpt lat="45.542728900909424" lon="10.299403667449951">
        <ele>268.0690184512111</ele>
        <time>2017-11-21T17:30:27.403000Z</time>
      </trkpt>
      <trkpt lat="45.542664527893066" lon="10.299274921417236">
        <ele>267.9829576449377</ele>
        <time>2017-11-21T17:30:27.581000Z</time>
      </trkpt>
      <trkpt lat="45.54249286651611" lon="10.299339294433594">
        <ele>260.11218282412665</ele>
        <time>2017-11-21T17:30:27.866000Z</time>
      </trkpt>
      <trkpt lat="45.5423641204834" lon="10.299532413482666">
        <ele>259.89743499352653</ele>
        <time>2017-11-21T17:30:28.165000Z</time>
      </trkpt>
      <trkpt lat="45.54238557815552" lon="10.299811363220215">
        <ele>259.67140449767925</ele>
        <time>2017-11-21T17:30:28.480000Z</time>
      </trkpt>
      <trkpt lat="45.54249286651611" lon="10.300090312957764">
        <ele>258.0817419572106</ele>
        <time>2017-11-21T17:30:28.837000Z</time>
      </trkpt>
      <trkpt lat="45.542728900909424" lon="10.300390720367432">
        <ele>265.37484776191474</ele>
        <time>2017-11-21T17:30:29.344000Z</time>
      </trkpt>
      <trkpt lat="45.54335117340088" lon="10.3006911277771">
        <ele>274.70205571150996</ele>
        <time>2017-11-21T17:30:30.397000Z</time>
      </trkpt>
      <trkpt lat="45.54350137710571" lon="10.300884246826172">
        <ele>264.6413295893114</ele>
        <time>2017-11-21T17:30:30.721000Z</time>
      </trkpt>
      <trkpt lat="45.543501460924745" lon="10.300884246826172">
        <ele>264.6404750325071</ele>
        <time>2017-11-21T17:30:30.721000Z</time>
      </trkpt>
      <trkpt lat="45.54352858854877" lon="10.300919941062586">
        <ele>264.26437335020677</ele>
        <time>2017-11-21T17:30:30.780000Z</time>
      </trkpt>
      <trkpt lat="45.5435349047184" lon="10.300928251817822">
        <ele>264.1768049429848</ele>
        <time>2017-11-21T17:30:30.794000Z</time>
      </trkpt>
      <trkpt lat="45.54353498853743" lon="10.300928335636854">
        <ele>264.17576164353096</ele>
        <time>2017-11-21T17:30:30.794000Z</time>
      </trkpt>
      <trkpt lat="45.54390907287598" lon="10.30142068862915">
        <ele>258.9887345423909</ele>
        <time>2017-11-21T17:30:31.610000Z</time>
      </trkpt>
      <trkpt lat="45.54476737976074" lon="10.301849842071533">
        <ele>250.17197493717012</ele>
        <time>2017-11-21T17:30:33.068000Z</time>
      </trkpt>
      <trkpt lat="45.54483183659613" lon="10.302042961120605">
        <ele>249.24559582871245</ele>
        <time>2017-11-21T17:30:33.308000Z</time>
      </trkpt>
      <trkpt lat="45.54474592208862" lon="10.302128791809082">
        <ele>248.59726544968137</ele>
        <time>2017-11-21T17:30:33.476000Z</time>
      </trkpt>
      <trkpt lat="45.54412364959717" lon="10.301828384399414">
        <ele>240.20241330106956</ele>
        <time>2017-11-21T17:30:34.529000Z</time>
      </trkpt>
      <trkpt lat="45.54354429244995" lon="10.301785469055176">
        <ele>240.67983428109832</ele>
        <time>2017-11-21T17:30:35.459000Z</time>
      </trkpt>
      <trkpt lat="45.543179512023926" lon="10.301592350006104">
        <ele>243.0</ele>
        <time>2017-11-21T17:30:36.083000Z</time>
      </trkpt>
      <trkpt lat="45.542986476793885" lon="10.301635265350342">
        <ele>240.1627940392891</ele>
        <time>2017-11-21T17:30:36.396000Z</time>
      </trkpt>
      <trkpt lat="45.542449951171875" lon="10.302236080169678">
        <ele>221.5935781500849</ele>
        <time>2017-11-21T17:30:37.489000Z</time>
      </trkpt>
      <trkpt lat="45.54233907436883" lon="10.302411601924057">
        <ele>219.18935307568975</ele>
        <time>2017-11-21T17:30:37.754000Z</time>
      </trkpt>
      <trkpt lat="45.54233335889876" lon="10.302420649677515">
        <ele>219.10723759082683</ele>
        <time>2017-11-21T17:30:37.768000Z</time>
      </trkpt>
      <trkpt lat="45.542192459106445" lon="10.302643775939941">
        <ele>212.7491718572243</ele>
        <time>2017-11-21T17:30:38.105000Z</time>
      </trkpt>
      <trkpt lat="45.54219254292548" lon="10.302643775939941">
        <ele>212.7483653016337</ele>
        <time>2017-11-21T17:30:38.105000Z</time>
      </trkpt>
      <trkpt lat="45.54187059402466" lon="10.30294418334961">
        <ele>209.04748472561747</ele>
        <time>2017-11-21T17:30:38.722000Z</time>
      </trkpt>
      <trkpt lat="45.54139860905707" lon="10.30318021774292">
        <ele>203.90190516344032</ele>
        <time>2017-11-21T17:30:39.524000Z</time>
      </trkpt>
      <trkpt lat="45.54114111699164" lon="10.303266048431396">
        <ele>202.51351177549995</ele>
        <time>2017-11-21T17:30:39.948000Z</time>
      </trkpt>
      <trkpt lat="45.5406475905329" lon="10.30341625213623">
        <ele>196.320151835367</ele>
        <time>2017-11-21T17:30:40.757000Z</time>
      </trkpt>
      <trkpt lat="45.540432929992676" lon="10.303609371185303">
        <ele>195.04972177803538</ele>
        <time>2017-11-21T17:30:41.164000Z</time>
      </trkpt>
      <trkpt lat="45.54039009846747" lon="10.303652286529541">
        <ele>194.78771534779995</ele>
        <time>2017-11-21T17:30:41.248000Z</time>
      </trkpt>
      <trkpt lat="45.54036855697632" lon="10.30369520187378">
        <ele>194.60254941645283</ele>
        <time>2017-11-21T17:30:41.307000Z</time>
      </trkpt>
      <trkpt lat="45.54008960723877" lon="10.303502082824707">
        <ele>193.0502549035253</ele>
        <time>2017-11-21T17:30:41.804000Z</time>
      </trkpt>
      <trkpt lat="45.53955324925482" lon="10.303223133087158">
        <ele>190.33175144338136</ele>
        <time>2017-11-21T17:30:42.719000Z</time>
      </trkpt>
      <trkpt lat="45.53936004638672" lon="10.303051471710205">
        <ele>189.1103807473089</ele>
        <time>2017-11-21T17:30:43.084000Z</time>
      </trkpt>
      <trkpt lat="45.539016807451844" lon="10.302622318267822">
        <ele>182.99490064485784</ele>
        <time>2017-11-21T17:30:43.815000Z</time>
      </trkpt>
      <trkpt lat="45.53839453496039" lon="10.301871299743652">
        <ele>181.96323931709415</ele>
        <time>2017-11-21T17:30:45.121000Z</time>
      </trkpt>
      <trkpt lat="45.5381799582392" lon="10.30167818069458">
        <ele>177.35281875918676</ele>
        <time>2017-11-21T17:30:45.528000Z</time>
      </trkpt>
      <trkpt lat="45.537942133166226" lon="10.301678180694628">
        <ele>176.46795859046696</ele>
        <time>2017-11-21T17:30:45.909000Z</time>
      </trkpt>
      <trkpt lat="45.53793319500983" lon="10.30167818069458">
        <ele>176.45808781730054</ele>
        <time>2017-11-21T17:30:45.923000Z</time>
      </trkpt>
      <trkpt lat="45.53783663548529" lon="10.30167818069458">
        <ele>176.35145316902413</ele>
        <time>2017-11-21T17:30:46.078000Z</time>
      </trkpt>
      <trkpt lat="45.53775072097778" lon="10.30167818069458">
        <ele>176.25657425020185</ele>
        <time>2017-11-21T17:30:46.216000Z</time>
      </trkpt>
      <trkpt lat="45.537729347124696" lon="10.301656723022461">
        <ele>178.6249319294113</ele>
        <time>2017-11-21T17:30:46.258000Z</time>
      </trkpt>
      <trkpt lat="45.53768643178046" lon="10.301570892333984">
        <ele>178.72394275132137</ele>
        <time>2017-11-21T17:30:46.376000Z</time>
      </trkpt>
      <trkpt lat="45.537214279174805" lon="10.300390720367432">
        <ele>179.33333333333334</ele>
        <time>2017-11-21T17:30:47.902000Z</time>
      </trkpt>
      <trkpt lat="45.537064159289" lon="10.30019760131836">
        <ele>179.08381357285535</ele>
        <time>2017-11-21T17:30:48.226000Z</time>
      </trkpt>
      <trkpt lat="45.53699970245361" lon="10.300090312957764">
        <ele>178.9615614661714</ele>
        <time>2017-11-21T17:30:48.385000Z</time>
      </trkpt>
      <trkpt lat="45.536699295043945" lon="10.299575328826904">
        <ele>180.3819117005095</ele>
        <time>2017-11-21T17:30:49.138000Z</time>
      </trkpt>
      <trkpt lat="45.536463260650635" lon="10.299296379089355">
        <ele>176.33688554559902</ele>
        <time>2017-11-21T17:30:49.629000Z</time>
      </trkpt>
      <trkpt lat="45.536205768585205" lon="10.29942512512207">
        <ele>176.0</ele>
        <time>2017-11-21T17:30:50.066000Z</time>
      </trkpt>
      <trkpt lat="45.53584098815918" lon="10.299489498138428">
        <ele>173.70773658992343</ele>
        <time>2017-11-21T17:30:50.655000Z</time>
      </trkpt>
      <trkpt lat="45.53566932678223" lon="10.299596786499023">
        <ele>169.53907427335855</ele>
        <time>2017-11-21T17:30:50.955000Z</time>
      </trkpt>
      <trkpt lat="45.535197257995605" lon="10.300261974334717">
        <ele>164.06915081346497</ele>
        <time>2017-11-21T17:30:52.018000Z</time>
      </trkpt>
      <trkpt lat="45.534961223602295" lon="10.300068855285645">
        <ele>160.83724496529365</ele>
        <time>2017-11-21T17:30:52.454000Z</time>
      </trkpt>
      <trkpt lat="45.534489154815674" lon="10.299832820892334">
        <ele>159.572295224282</ele>
        <time>2017-11-21T17:30:53.256000Z</time>
      </trkpt>
      <trkpt lat="45.53393430410519" lon="10.29829608011858">
        <ele>153.0324097682233</ele>
        <time>2017-11-21T17:30:55.197000Z</time>
      </trkpt>
      <trkpt lat="45.53393133915961" lon="10.298287868499756">
        <ele>153.0215456365955</ele>
        <time>2017-11-21T17:30:55.207000Z</time>
      </trkpt>
      <trkpt lat="45.533931255340576" lon="10.298287868499756">
        <ele>153.02140492004096</ele>
        <time>2017-11-21T17:30:55.208000Z</time>
      </trkpt>
      <trkpt lat="45.53393133915961" lon="10.298287868498756">
        <ele>153.02126420348648</ele>
        <time>2017-11-21T17:30:55.209000Z</time>
      </trkpt>
      <trkpt lat="45.53371676243842" lon="10.298030376434326">
        <ele>152.55066696407667</ele>
        <time>2017-11-21T17:30:55.658000Z</time>
      </trkpt>
      <trkpt lat="45.53367384709418" lon="10.297987461090088">
        <ele>152.46270229661175</ele>
        <time>2017-11-21T17:30:55.742000Z</time>
      </trkpt>
      <trkpt lat="45.53311586380005" lon="10.29745101928711">
        <ele>151.0</ele>
        <time>2017-11-21T17:30:56.820000Z</time>
      </trkpt>
      <trkpt lat="45.53260087966919" lon="10.297214984893799">
        <ele>150.40169971932175</ele>
        <time>2017-11-21T17:30:57.687000Z</time>
      </trkpt>
      <trkpt lat="45.53215035237372" lon="10.296571254730225">
        <ele>148.69659355060625</ele>
        <time>2017-11-21T17:30:58.709000Z</time>
      </trkpt>
      <trkpt lat="45.53169974125922" lon="10.295906066894531">
        <ele>148.7949679545153</ele>
        <time>2017-11-21T17:30:59.748000Z</time>
      </trkpt>
      <trkpt lat="45.5315709952265" lon="10.295755863189697">
        <ele>149.15353521897458</ele>
        <time>2017-11-21T17:31:00.015000Z</time>
      </trkpt>
      <trkpt lat="45.531013095751405" lon="10.29545545578003">
        <ele>148.5453708552392</ele>
        <time>2017-11-21T17:31:00.971000Z</time>
      </trkpt>
      <trkpt lat="45.53077697753906" lon="10.295391082763672">
        <ele>146.82272798241522</ele>
        <time>2017-11-21T17:31:01.356000Z</time>
      </trkpt>
      <trkpt lat="45.52944668568671" lon="10.295069217681885">
        <ele>144.30423370291362</ele>
        <time>2017-11-21T17:31:03.519000Z</time>
      </trkpt>
      <trkpt lat="45.5291033629328" lon="10.29494047164917">
        <ele>144.0</ele>
        <time>2017-11-21T17:31:04.088000Z</time>
      </trkpt>
      <trkpt lat="45.528524005785584" lon="10.29468297958374">
        <ele>143.37001516728176</ele>
        <time>2017-11-21T17:31:05.061000Z</time>
      </trkpt>
      <trkpt lat="45.52822359837592" lon="10.294532775878906">
        <ele>142.03954427834333</ele>
        <time>2017-11-21T17:31:05.571000Z</time>
      </trkpt>
      <trkpt lat="45.52807339467108" lon="10.29444694519043">
        <ele>141.87156753298544</ele>
        <time>2017-11-21T17:31:05.830000Z</time>
      </trkpt>
      <trkpt lat="45.528030479326844" lon="10.29442548751831">
        <ele>141.82435738828045</ele>
        <time>2017-11-21T17:31:05.903000Z</time>
      </trkpt>
      <trkpt lat="45.52770861424506" lon="10.294275283813477">
        <ele>141.47278381795152</ele>
        <time>2017-11-21T17:31:06.446000Z</time>
      </trkpt>
      <trkpt lat="45.52762278355658" lon="10.294232368469238">
        <ele>141.4129224945043</ele>
        <time>2017-11-21T17:31:06.592000Z</time>
      </trkpt>
      <trkpt lat="45.52734383381903" lon="10.294082164764404">
        <ele>141.55001537777557</ele>
        <time>2017-11-21T17:31:07.070000Z</time>
      </trkpt>
      <trkpt lat="45.52734375" lon="10.294082164764404">
        <ele>141.54995353598858</ele>
        <time>2017-11-21T17:31:07.070000Z</time>
      </trkpt>
      <trkpt lat="45.52665718831122" lon="10.293760299682617">
        <ele>140.3501200027222</ele>
        <time>2017-11-21T17:31:08.229000Z</time>
      </trkpt>
      <trkpt lat="45.52605191352607" lon="10.293465182723587">
        <ele>139.86248098284383</ele>
        <time>2017-11-21T17:31:09.254000Z</time>
      </trkpt>
      <trkpt lat="45.526043297722936" lon="10.293460981920362">
        <ele>139.85553967800556</ele>
        <time>2017-11-21T17:31:09.269000Z</time>
      </trkpt>
      <trkpt lat="45.52604338154197" lon="10.293460981920362">
        <ele>139.85547577464374</ele>
        <time>2017-11-21T17:31:09.269000Z</time>
      </trkpt>
      <trkpt lat="45.5257773399353" lon="10.293331146240234">
        <ele>138.6411187173403</ele>
        <time>2017-11-21T17:31:09.720000Z</time>
      </trkpt>
      <trkpt lat="45.523738861083984" lon="10.292344093322754">
        <ele>137.0</ele>
        <time>2017-11-21T17:31:13.171000Z</time>
      </trkpt>
      <trkpt lat="45.5234169960022" lon="10.292043685913086">
        <ele>136.72769564015434</ele>
        <time>2017-11-21T17:31:13.788000Z</time>
      </trkpt>
      <trkpt lat="45.523052299395204" lon="10.29144287109375">
        <ele>135.0</ele>
        <time>2017-11-21T17:31:14.681000Z</time>
      </trkpt>
      <trkpt lat="45.522301197052" lon="10.290112495422363">
        <ele>135.66666666666666</ele>
        <time>2017-11-21T17:31:16.600000Z</time>
      </trkpt>
      <trkpt lat="45.52215099334717" lon="10.289618968963623">
        <ele>135.94194612380548</ele>
        <time>2017-11-21T17:31:17.204000Z</time>
      </trkpt>
      <trkpt lat="45.52184626025055" lon="10.287104857591402">
        <ele>135.0</ele>
        <time>2017-11-21T17:31:20.070000Z</time>
      </trkpt>
      <trkpt lat="45.521845472976565" lon="10.287098363041878">
        <ele>134.99277113997542</ele>
        <time>2017-11-21T17:31:20.077000Z</time>
      </trkpt>
      <trkpt lat="45.5218455567956" lon="10.287098614498973">
        <ele>134.99246572784304</ele>
        <time>2017-11-21T17:31:20.077000Z</time>
      </trkpt>
      <trkpt lat="45.52180767059326" lon="10.286786556243896">
        <ele>134.6451086113052</ele>
        <time>2017-11-21T17:31:20.433000Z</time>
      </trkpt>
      <trkpt lat="45.521399974823" lon="10.286872386932373">
        <ele>133.0</ele>
        <time>2017-11-21T17:31:21.094000Z</time>
      </trkpt>
      <trkpt lat="45.52088499069214" lon="10.286829471588135">
        <ele>133.1681615567248</ele>
        <time>2017-11-21T17:31:21.921000Z</time>
      </trkpt>
      <trkpt lat="45.51985510624945" lon="10.286529064178467">
        <ele>134.51082534958417</ele>
        <time>2017-11-21T17:31:23.606000Z</time>
      </trkpt>
      <trkpt lat="45.51985502243042" lon="10.286529064178467">
        <ele>134.5107942300771</ele>
        <time>2017-11-21T17:31:23.606000Z</time>
      </trkpt>
      <trkpt lat="45.519726276397705" lon="10.286979675292969">
        <ele>134.0508697565737</ele>
        <time>2017-11-21T17:31:24.153000Z</time>
      </trkpt>
      <trkpt lat="45.519747817888856" lon="10.287172794342041">
        <ele>134.0</ele>
        <time>2017-11-21T17:31:24.373000Z</time>
      </trkpt>
      <trkpt lat="45.51981210708618" lon="10.287837982177734">
        <ele>134.1252121902243</ele>
        <time>2017-11-21T17:31:25.127000Z</time>
      </trkpt>
      <trkpt lat="45.51961898803711" lon="10.287816524505615">
        <ele>134.17676327290988</ele>
        <time>2017-11-21T17:31:25.438000Z</time>
      </trkpt>
      <trkpt lat="45.51785954274237" lon="10.287044048309326">
        <ele>135.0</ele>
        <time>2017-11-21T17:31:28.389000Z</time>
      </trkpt>
      <trkpt lat="45.517773712053895" lon="10.287408828735352">
        <ele>135.0</ele>
        <time>2017-11-21T17:31:28.821000Z</time>
      </trkpt>
      <trkpt lat="45.517752760390714" lon="10.287499127478188">
        <ele>135.0</ele>
        <time>2017-11-21T17:31:28.928000Z</time>
      </trkpt>
    </trkseg>
  </trk>
</gpx>